Wetterdaten: Freitag, 06.10.2023
Datum Zeit Temp. Aussen Temp. o. S. Temp +5cm Feuchte Auss Luftdruck Regen Sonnenschein Regendauer Solar Windben Empfang
06.10.2023 00:00 12,6 C 11,7 C 8,9 C 90 % 1026,4 hPa 0,0 l/m 0 min 0 min 0 W/m 0,0 km/h (0 Bft) 100,00 %
06.10.2023 00:02 12,5 C 11,7 C 8,3 C 90 % 1026,4 hPa 0,0 l/m 0 min 0 min 0 W/m 6,4 km/h (2 Bft) 100,00 %
06.10.2023 00:04 12,5 C 11,7 C 8,3 C 90 % 1026,4 hPa 0,0 l/m 0 min 0 min 0 W/m 3,2 km/h (1 Bft) 95,74 %
06.10.2023 00:10 12,4 C 11,7 C 8,3 C 90 % 1026,4 hPa 0,0 l/m 0 min 0 min 0 W/m 6,4 km/h (2 Bft) 95,86 %
06.10.2023 00:12 12,4 C 11,7 C 8,3 C 90 % 1026,3 hPa 0,0 l/m 0 min 0 min 0 W/m 0,0 km/h (0 Bft) 97,87 %
06.10.2023 00:16 12,4 C 11,7 C 8,3 C 90 % 1026,3 hPa 0,0 l/m 0 min 0 min 0 W/m 3,2 km/h (1 Bft) 97,85 %
06.10.2023 00:18 12,4 C 11,7 C 8,3 C 90 % 1026,3 hPa 0,0 l/m 0 min 0 min 0 W/m 3,2 km/h (1 Bft) 93,62 %
06.10.2023 00:20 12,4 C 11,7 C 8,3 C 90 % 1026,3 hPa 0,0 l/m 0 min 0 min 0 W/m 0,0 km/h (0 Bft) 95,74 %
06.10.2023 00:22 12,4 C 11,7 C 8,3 C 90 % 1026,3 hPa 0,0 l/m 0 min 0 min 0 W/m 3,2 km/h (1 Bft) 95,74 %
06.10.2023 00:24 12,3 C 11,7 C 8,3 C 90 % 1026,3 hPa 0,0 l/m 0 min 0 min 0 W/m 3,2 km/h (1 Bft) 95,74 %
06.10.2023 00:26 12,3 C 11,1 C 8,3 C 90 % 1026,2 hPa 0,0 l/m 0 min 0 min 0 W/m 3,2 km/h (1 Bft) 95,74 %
06.10.2023 00:28 12,3 C 11,7 C 8,3 C 90 % 1026,2 hPa 0,0 l/m 0 min 0 min 0 W/m 3,2 km/h (1 Bft) 97,87 %
06.10.2023 00:30 12,3 C 11,7 C 8,3 C 90 % 1026,3 hPa 0,0 l/m 0 min 0 min 0 W/m 3,2 km/h (1 Bft) 97,87 %
06.10.2023 00:32 12,3 C 11,1 C 8,3 C 90 % 1026,3 hPa 0,0 l/m 0 min 0 min 0 W/m 0,0 km/h (0 Bft) 97,83 %
06.10.2023 00:34 12,3 C 11,1 C 8,3 C 90 % 1026,3 hPa 0,0 l/m 0 min 0 min 0 W/m 3,2 km/h (1 Bft) 97,87 %
06.10.2023 00:36 12,3 C 11,1 C 8,3 C 91 % 1026,2 hPa 0,0 l/m 0 min 0 min 0 W/m 0,0 km/h (0 Bft) 74,47 %
06.10.2023 00:38 12,3 C 11,1 C 8,3 C 91 % 1026,3 hPa 0,0 l/m 0 min 0 min 0 W/m 0,0 km/h (0 Bft) 75,61 %
06.10.2023 00:40 12,2 C 11,1 C 8,3 C 91 % 1026,3 hPa 0,0 l/m 0 min 0 min 0 W/m 0,0 km/h (0 Bft) 97,87 %
06.10.2023 00:42 12,2 C 11,1 C 8,3 C 91 % 1026,2 hPa 0,0 l/m 0 min 0 min 0 W/m 0,0 km/h (0 Bft) 97,87 %
06.10.2023 00:44 12,2 C 11,1 C 8,3 C 91 % 1026,2 hPa 0,0 l/m 0 min 0 min 0 W/m 0,0 km/h (0 Bft) 97,87 %
06.10.2023 00:46 12,2 C 11,1 C 8,3 C 91 % 1026,3 hPa 0,0 l/m 0 min 0 min 0 W/m 3,2 km/h (1 Bft) 95,65 %
06.10.2023 00:48 12,2 C 11,1 C 8,3 C 91 % 1026,3 hPa 0,0 l/m 0 min 0 min 0 W/m 3,2 km/h (1 Bft) 97,87 %
06.10.2023 00:50 12,2 C 11,1 C 8,3 C 91 % 1026,2 hPa 0,0 l/m 0 min 0 min 0 W/m 3,2 km/h (1 Bft) 97,87 %
06.10.2023 00:52 12,2 C 11,1 C 8,3 C 91 % 1026,2 hPa 0,0 l/m 0 min 0 min 0 W/m 6,4 km/h (2 Bft) 97,87 %
06.10.2023 00:54 12,2 C 11,1 C 8,3 C 91 % 1026,2 hPa 0,0 l/m 0 min 0 min 0 W/m 3,2 km/h (1 Bft) 95,56 %
06.10.2023 00:56 12,2 C 11,1 C 8,3 C 91 % 1026,2 hPa 0,0 l/m 0 min 0 min 0 W/m 3,2 km/h (1 Bft) 89,13 %
06.10.2023 00:58 12,1 C 11,1 C 8,3 C 91 % 1026,2 hPa 0,0 l/m 0 min 0 min 0 W/m 3,2 km/h (1 Bft) 95,74 %
06.10.2023 01:00 12,1 C 11,1 C 8,3 C 91 % 1026,2 hPa 0,0 l/m 0 min 0 min 0 W/m 0,0 km/h (0 Bft) 95,74 %
06.10.2023 01:02 12,1 C 11,1 C 8,3 C 91 % 1026,3 hPa 0,0 l/m 0 min 0 min 0 W/m 0,0 km/h (0 Bft) 93,62 %
06.10.2023 01:04 12,1 C 11,1 C 8,3 C 91 % 1026,2 hPa 0,0 l/m 0 min 0 min 0 W/m 0,0 km/h (0 Bft) 95,65 %
06.10.2023 01:08 12,1 C 11,1 C 8,3 C 91 % 1026,2 hPa 0,0 l/m 0 min 0 min 0 W/m 3,2 km/h (1 Bft) 95,05 %
06.10.2023 01:10 12,1 C 11,1 C 8,3 C 91 % 1026,2 hPa 0,0 l/m 0 min 0 min 0 W/m 3,2 km/h (1 Bft) 95,61 %
06.10.2023 01:16 12,1 C 11,1 C 8,3 C 91 % 1026,3 hPa 0,0 l/m 0 min 0 min 0 W/m 6,4 km/h (2 Bft) 95,12 %
06.10.2023 01:17 12,1 C 11,1 C 8,3 C 91 % 1026,3 hPa 0,0 l/m 0 min 0 min 0 W/m 0,0 km/h (0 Bft) 100,00 %
06.10.2023 01:22 12,0 C 11,1 C 8,3 C 92 % 1026,3 hPa 0,0 l/m 0 min 0 min 0 W/m 0,0 km/h (0 Bft) 97,87 %
06.10.2023 01:24 12,0 C 11,1 C 7,8 C 92 % 1026,4 hPa 0,0 l/m 0 min 0 min 0 W/m 0,0 km/h (0 Bft) 97,87 %
06.10.2023 01:26 12,0 C 11,1 C 7,8 C 92 % 1026,3 hPa 0,0 l/m 0 min 0 min 0 W/m 3,2 km/h (1 Bft) 97,87 %
06.10.2023 01:28 12,0 C 11,1 C 7,8 C 92 % 1026,3 hPa 0,0 l/m 0 min 0 min 0 W/m 3,2 km/h (1 Bft) 97,87 %
06.10.2023 01:30 12,0 C 11,1 C 7,8 C 92 % 1026,3 hPa 0,0 l/m 0 min 0 min 0 W/m 0,0 km/h (0 Bft) 97,87 %
06.10.2023 01:32 12,0 C 11,1 C 7,8 C 92 % 1026,3 hPa 0,0 l/m 0 min 0 min 0 W/m 6,4 km/h (2 Bft) 95,65 %
06.10.2023 01:34 12,0 C 11,1 C 7,8 C 92 % 1026,3 hPa 0,0 l/m 0 min 0 min 0 W/m 3,2 km/h (1 Bft) 97,87 %
06.10.2023 01:36 11,9 C 11,1 C 8,3 C 92 % 1026,3 hPa 0,0 l/m 0 min 0 min 0 W/m 9,7 km/h (2 Bft) 97,87 %
06.10.2023 01:38 11,9 C 11,1 C 8,3 C 92 % 1026,3 hPa 0,0 l/m 0 min 0 min 0 W/m 6,4 km/h (2 Bft) 97,87 %
06.10.2023 01:40 11,9 C 11,1 C 8,3 C 92 % 1026,3 hPa 0,0 l/m 0 min 0 min 0 W/m 6,4 km/h (2 Bft) 97,87 %
06.10.2023 01:42 11,9 C 11,1 C 7,8 C 92 % 1026,3 hPa 0,0 l/m 0 min 0 min 0 W/m 9,7 km/h (2 Bft) 97,87 %
06.10.2023 01:44 12,0 C 11,1 C 8,3 C 92 % 1026,4 hPa 0,0 l/m 0 min 0 min 0 W/m 9,7 km/h (2 Bft) 97,87 %
06.10.2023 01:46 12,0 C 11,1 C 8,3 C 92 % 1026,4 hPa 0,0 l/m 0 min 0 min 0 W/m 6,4 km/h (2 Bft) 97,83 %
06.10.2023 01:48 12,0 C 11,1 C 8,3 C 93 % 1026,4 hPa 0,0 l/m 0 min 0 min 0 W/m 3,2 km/h (1 Bft) 100,00 %
06.10.2023 01:50 12,0 C 11,1 C 8,3 C 93 % 1026,5 hPa 0,0 l/m 0 min 0 min 0 W/m 6,4 km/h (2 Bft) 100,00 %
06.10.2023 01:52 12,0 C 11,1 C 8,3 C 93 % 1026,4 hPa 0,0 l/m 0 min 0 min 0 W/m 3,2 km/h (1 Bft) 100,00 %
06.10.2023 01:54 12,0 C 11,1 C 8,3 C 93 % 1026,5 hPa 0,0 l/m 0 min 0 min 0 W/m 6,4 km/h (2 Bft) 100,00 %
06.10.2023 01:56 11,9 C 11,1 C 8,3 C 93 % 1026,5 hPa 0,0 l/m 0 min 0 min 0 W/m 3,2 km/h (1 Bft) 100,00 %
06.10.2023 01:58 11,9 C 11,1 C 8,3 C 93 % 1026,5 hPa 0,0 l/m 0 min 0 min 0 W/m 6,4 km/h (2 Bft) 100,00 %
06.10.2023 02:04 11,9 C 11,1 C 8,3 C 93 % 1026,5 hPa 0,0 l/m 0 min 0 min 0 W/m 9,7 km/h (2 Bft) 94,44 %
06.10.2023 02:06 11,9 C 11,1 C 8,3 C 93 % 1026,5 hPa 0,0 l/m 0 min 0 min 0 W/m 16,1 km/h (3 Bft) 96,61 %
06.10.2023 02:08 11,9 C 11,1 C 8,3 C 93 % 1026,5 hPa 0,0 l/m 0 min 0 min 0 W/m 6,4 km/h (2 Bft) 100,00 %
06.10.2023 02:10 11,9 C 11,1 C 8,3 C 93 % 1026,5 hPa 0,0 l/m 0 min 0 min 0 W/m 6,4 km/h (2 Bft) 100,00 %
06.10.2023 02:12 11,9 C 11,1 C 8,3 C 93 % 1026,5 hPa 0,0 l/m 0 min 0 min 0 W/m 6,4 km/h (2 Bft) 100,00 %
06.10.2023 02:14 11,9 C 11,1 C 8,3 C 93 % 1026,5 hPa 0,0 l/m 0 min 0 min 0 W/m 3,2 km/h (1 Bft) 100,00 %
06.10.2023 02:16 11,9 C 11,1 C 8,3 C 93 % 1026,5 hPa 0,0 l/m 0 min 0 min 0 W/m 6,4 km/h (2 Bft) 100,00 %
06.10.2023 02:18 11,9 C 11,1 C 8,3 C 93 % 1026,5 hPa 0,0 l/m 0 min 0 min 0 W/m 6,4 km/h (2 Bft) 100,00 %
06.10.2023 02:20 11,8 C 11,1 C 8,3 C 93 % 1026,5 hPa 0,0 l/m 0 min 0 min 0 W/m 3,2 km/h (1 Bft) 100,00 %
06.10.2023 02:22 11,8 C 11,1 C 8,3 C 93 % 1026,5 hPa 0,0 l/m 0 min 0 min 0 W/m 6,4 km/h (2 Bft) 97,87 %
06.10.2023 02:24 11,8 C 11,1 C 7,8 C 93 % 1026,5 hPa 0,0 l/m 0 min 0 min 0 W/m 3,2 km/h (1 Bft) 100,00 %
06.10.2023 02:26 11,8 C 11,1 C 7,8 C 93 % 1026,5 hPa 0,0 l/m 0 min 0 min 0 W/m 3,2 km/h (1 Bft) 97,87 %
06.10.2023 02:28 11,8 C 11,1 C 8,3 C 93 % 1026,5 hPa 0,0 l/m 0 min 0 min 0 W/m 3,2 km/h (1 Bft) 95,65 %
06.10.2023 02:30 11,8 C 11,1 C 8,3 C 93 % 1026,4 hPa 0,0 l/m 0 min 0 min 0 W/m 6,4 km/h (2 Bft) 95,74 %
06.10.2023 02:32 11,8 C 11,1 C 8,3 C 93 % 1026,5 hPa 0,0 l/m 0 min 0 min 0 W/m 9,7 km/h (2 Bft) 100,00 %
06.10.2023 02:34 11,8 C 11,1 C 8,3 C 93 % 1026,5 hPa 0,0 l/m 0 min 0 min 0 W/m 6,4 km/h (2 Bft) 97,87 %
06.10.2023 02:36 11,8 C 11,1 C 8,3 C 93 % 1026,5 hPa 0,0 l/m 0 min 0 min 0 W/m 9,7 km/h (2 Bft) 97,87 %
06.10.2023 02:38 11,8 C 11,1 C 8,3 C 93 % 1026,6 hPa 0,0 l/m 0 min 0 min 0 W/m 9,7 km/h (2 Bft) 97,87 %
06.10.2023 02:40 11,8 C 11,1 C 8,3 C 93 % 1026,5 hPa 0,0 l/m 0 min 0 min 0 W/m 12,9 km/h (3 Bft) 97,83 %
06.10.2023 02:42 11,8 C 11,1 C 8,3 C 93 % 1026,5 hPa 0,0 l/m 0 min 0 min 0 W/m 6,4 km/h (2 Bft) 97,87 %
06.10.2023 02:44 11,8 C 11,1 C 8,3 C 93 % 1026,6 hPa 0,0 l/m 0 min 0 min 0 W/m 9,7 km/h (2 Bft) 97,87 %
06.10.2023 02:46 11,8 C 11,1 C 7,8 C 93 % 1026,5 hPa 0,0 l/m 0 min 0 min 0 W/m 12,9 km/h (3 Bft) 97,87 %
06.10.2023 02:48 11,8 C 11,1 C 7,8 C 93 % 1026,5 hPa 0,0 l/m 0 min 0 min 0 W/m 3,2 km/h (1 Bft) 97,87 %
06.10.2023 02:50 11,8 C 11,1 C 8,3 C 93 % 1026,4 hPa 0,0 l/m 0 min 0 min 0 W/m 3,2 km/h (1 Bft) 97,87 %
06.10.2023 02:52 11,8 C 11,1 C 7,8 C 93 % 1026,4 hPa 0,0 l/m 0 min 0 min 0 W/m 0,0 km/h (0 Bft) 97,83 %
06.10.2023 02:54 11,8 C 11,1 C 7,8 C 93 % 1026,4 hPa 0,0 l/m 0 min 0 min 0 W/m 3,2 km/h (1 Bft) 97,87 %
06.10.2023 02:56 11,8 C 11,1 C 7,8 C 93 % 1026,3 hPa 0,0 l/m 0 min 0 min 0 W/m 0,0 km/h (0 Bft) 97,87 %
06.10.2023 02:58 11,8 C 11,1 C 7,8 C 93 % 1026,3 hPa 0,0 l/m 0 min 0 min 0 W/m 6,4 km/h (2 Bft) 97,87 %
06.10.2023 03:00 11,8 C 11,1 C 7,8 C 93 % 1026,4 hPa 0,0 l/m 0 min 0 min 0 W/m 9,7 km/h (2 Bft) 97,87 %
06.10.2023 03:02 11,7 C 11,1 C 7,8 C 93 % 1026,3 hPa 0,0 l/m 0 min 0 min 0 W/m 9,7 km/h (2 Bft) 95,74 %
06.10.2023 03:04 11,7 C 11,1 C 7,8 C 93 % 1026,3 hPa 0,0 l/m 0 min 0 min 0 W/m 9,7 km/h (2 Bft) 98,04 %
06.10.2023 03:06 11,7 C 11,1 C 7,8 C 93 % 1026,3 hPa 0,0 l/m 0 min 0 min 0 W/m 9,7 km/h (2 Bft) 100,00 %
06.10.2023 03:08 11,7 C 11,1 C 7,8 C 93 % 1026,3 hPa 0,0 l/m 0 min 0 min 0 W/m 12,9 km/h (3 Bft) 97,87 %
06.10.2023 03:10 11,8 C 11,1 C 7,8 C 93 % 1026,3 hPa 0,0 l/m 0 min 0 min 0 W/m 12,9 km/h (3 Bft) 100,00 %
06.10.2023 03:12 11,8 C 11,1 C 7,8 C 93 % 1026,2 hPa 0,0 l/m 0 min 0 min 0 W/m 3,2 km/h (1 Bft) 97,87 %
06.10.2023 03:14 11,8 C 11,1 C 8,3 C 93 % 1026,2 hPa 0,0 l/m 0 min 0 min 0 W/m 9,7 km/h (2 Bft) 100,00 %
06.10.2023 03:16 11,8 C 11,1 C 7,8 C 93 % 1026,2 hPa 0,0 l/m 0 min 0 min 0 W/m 3,2 km/h (1 Bft) 100,00 %
06.10.2023 03:18 11,7 C 11,1 C 7,8 C 93 % 1026,2 hPa 0,0 l/m 0 min 0 min 0 W/m 3,2 km/h (1 Bft) 100,00 %
06.10.2023 03:20 11,7 C 11,1 C 7,8 C 93 % 1026,1 hPa 0,0 l/m 0 min 0 min 0 W/m 3,2 km/h (1 Bft) 100,00 %
06.10.2023 03:22 11,7 C 11,1 C 7,8 C 93 % 1026,1 hPa 0,0 l/m 0 min 0 min 0 W/m 9,7 km/h (2 Bft) 97,87 %
06.10.2023 03:24 11,7 C 11,1 C 7,8 C 93 % 1026,1 hPa 0,0 l/m 0 min 0 min 0 W/m 6,4 km/h (2 Bft) 97,87 %
06.10.2023 03:26 11,7 C 11,1 C 7,8 C 93 % 1026,1 hPa 0,0 l/m 0 min 0 min 0 W/m 9,7 km/h (2 Bft) 97,87 %
06.10.2023 03:28 11,7 C 11,1 C 7,8 C 93 % 1026,1 hPa 0,0 l/m 0 min 0 min 0 W/m 3,2 km/h (1 Bft) 97,87 %
06.10.2023 03:30 11,7 C 11,1 C 7,8 C 93 % 1026,0 hPa 0,0 l/m 0 min 0 min 0 W/m 3,2 km/h (1 Bft) 93,62 %
06.10.2023 03:32 11,7 C 11,1 C 7,8 C 93 % 1026,0 hPa 0,0 l/m 0 min 0 min 0 W/m 3,2 km/h (1 Bft) 95,65 %
06.10.2023 03:34 11,7 C 11,1 C 7,8 C 93 % 1026,0 hPa 0,0 l/m 0 min 0 min 0 W/m 3,2 km/h (1 Bft) 95,74 %
06.10.2023 03:36 11,7 C 11,1 C 7,8 C 93 % 1026,0 hPa 0,0 l/m 0 min 0 min 0 W/m 6,4 km/h (2 Bft) 95,74 %
06.10.2023 03:38 11,7 C 11,1 C 7,8 C 93 % 1026,0 hPa 0,0 l/m 0 min 0 min 0 W/m 3,2 km/h (1 Bft) 95,74 %
06.10.2023 03:40 11,6 C 11,1 C 7,8 C 93 % 1026,0 hPa 0,0 l/m 0 min 0 min 0 W/m 3,2 km/h (1 Bft) 95,74 %
06.10.2023 03:42 11,6 C 11,1 C 7,8 C 93 % 1025,9 hPa 0,0 l/m 0 min 0 min 0 W/m 3,2 km/h (1 Bft) 95,74 %
06.10.2023 03:44 11,6 C 11,1 C 7,8 C 93 % 1025,9 hPa 0,0 l/m 0 min 0 min 0 W/m 0,0 km/h (0 Bft) 95,65 %
06.10.2023 03:46 11,6 C 11,1 C 7,8 C 93 % 1026,0 hPa 0,0 l/m 0 min 0 min 0 W/m 0,0 km/h (0 Bft) 93,62 %
06.10.2023 03:48 11,6 C 11,1 C 7,8 C 93 % 1025,9 hPa 0,0 l/m 0 min 0 min 0 W/m 0,0 km/h (0 Bft) 93,62 %
06.10.2023 03:50 11,6 C 11,1 C 7,8 C 93 % 1025,9 hPa 0,0 l/m 0 min 0 min 0 W/m 0,0 km/h (0 Bft) 93,62 %
06.10.2023 03:52 11,6 C 11,1 C 7,8 C 93 % 1025,9 hPa 0,0 l/m 0 min 0 min 0 W/m 0,0 km/h (0 Bft) 95,74 %
06.10.2023 03:54 11,6 C 11,1 C 7,8 C 93 % 1025,9 hPa 0,0 l/m 0 min 0 min 0 W/m 0,0 km/h (0 Bft) 94,29 %
06.10.2023 03:56 11,6 C 11,1 C 7,8 C 93 % 1025,9 hPa 0,0 l/m 0 min 0 min 0 W/m 12,9 km/h (3 Bft) 96,43 %
06.10.2023 03:58 11,6 C 11,1 C 7,8 C 93 % 1026,0 hPa 0,0 l/m 0 min 0 min 0 W/m 6,4 km/h (2 Bft) 93,48 %
06.10.2023 04:00 11,6 C 11,1 C 7,8 C 93 % 1026,0 hPa 0,0 l/m 0 min 0 min 0 W/m 6,4 km/h (2 Bft) 93,62 %
06.10.2023 04:02 11,6 C 11,1 C 7,8 C 93 % 1026,0 hPa 0,0 l/m 0 min 0 min 0 W/m 3,2 km/h (1 Bft) 93,62 %
06.10.2023 04:04 11,6 C 11,1 C 7,8 C 93 % 1026,0 hPa 0,0 l/m 0 min 0 min 0 W/m 6,4 km/h (2 Bft) 95,65 %
06.10.2023 04:06 11,6 C 11,1 C 7,8 C 93 % 1026,0 hPa 0,0 l/m 0 min 0 min 0 W/m 3,2 km/h (1 Bft) 93,62 %
06.10.2023 04:08 11,6 C 11,1 C 7,8 C 93 % 1025,9 hPa 0,0 l/m 0 min 0 min 0 W/m 3,2 km/h (1 Bft) 97,87 %
06.10.2023 04:10 11,6 C 11,1 C 7,8 C 93 % 1025,9 hPa 0,0 l/m 0 min 0 min 0 W/m 3,2 km/h (1 Bft) 95,74 %
06.10.2023 04:12 11,6 C 10,6 C 7,8 C 93 % 1025,9 hPa 0,0 l/m 0 min 0 min 0 W/m 3,2 km/h (1 Bft) 97,87 %
06.10.2023 04:14 11,6 C 10,6 C 7,8 C 93 % 1025,8 hPa 0,0 l/m 0 min 0 min 0 W/m 3,2 km/h (1 Bft) 95,74 %
06.10.2023 04:16 11,6 C 10,6 C 7,8 C 93 % 1025,9 hPa 0,0 l/m 0 min 0 min 0 W/m 3,2 km/h (1 Bft) 97,83 %
06.10.2023 04:18 11,5 C 10,6 C 7,8 C 93 % 1025,9 hPa 0,0 l/m 0 min 0 min 0 W/m 6,4 km/h (2 Bft) 97,87 %
06.10.2023 04:20 11,5 C 10,6 C 7,8 C 93 % 1025,9 hPa 0,0 l/m 0 min 0 min 0 W/m 3,2 km/h (1 Bft) 95,74 %
06.10.2023 04:22 11,5 C 10,6 C 7,8 C 93 % 1025,9 hPa 0,0 l/m 0 min 0 min 0 W/m 3,2 km/h (1 Bft) 93,62 %
06.10.2023 04:24 11,5 C 10,6 C 7,8 C 93 % 1025,9 hPa 0,0 l/m 0 min 0 min 0 W/m 3,2 km/h (1 Bft) 93,62 %
06.10.2023 04:26 11,5 C 10,6 C 7,8 C 93 % 1025,9 hPa 0,0 l/m 0 min 0 min 0 W/m 3,2 km/h (1 Bft) 97,87 %
06.10.2023 04:28 11,5 C 10,6 C 7,8 C 93 % 1025,9 hPa 0,0 l/m 0 min 0 min 0 W/m 0,0 km/h (0 Bft) 97,87 %
06.10.2023 04:30 11,4 C 10,6 C 7,8 C 93 % 1025,9 hPa 0,0 l/m 0 min 0 min 0 W/m 3,2 km/h (1 Bft) 97,83 %
06.10.2023 04:32 11,4 C 10,6 C 7,8 C 93 % 1025,8 hPa 0,0 l/m 0 min 0 min 0 W/m 0,0 km/h (0 Bft) 95,74 %
06.10.2023 04:34 11,4 C 10,6 C 7,8 C 93 % 1025,9 hPa 0,0 l/m 0 min 0 min 0 W/m 0,0 km/h (0 Bft) 68,09 %
06.10.2023 04:36 11,4 C 10,6 C 7,8 C 93 % 1025,8 hPa 0,0 l/m 0 min 0 min 0 W/m 3,2 km/h (1 Bft) 69,23 %
06.10.2023 04:38 11,4 C 10,6 C 7,8 C 93 % 1025,9 hPa 0,0 l/m 0 min 0 min 0 W/m 0,0 km/h (0 Bft) 97,87 %
06.10.2023 04:40 11,4 C 10,6 C 7,8 C 93 % 1025,8 hPa 0,0 l/m 0 min 0 min 0 W/m 6,4 km/h (2 Bft) 95,74 %
06.10.2023 04:42 11,4 C 10,6 C 7,8 C 93 % 1025,8 hPa 0,0 l/m 0 min 0 min 0 W/m 0,0 km/h (0 Bft) 93,62 %
06.10.2023 04:44 11,4 C 10,6 C 7,8 C 93 % 1025,9 hPa 0,0 l/m 0 min 0 min 0 W/m 0,0 km/h (0 Bft) 97,87 %
06.10.2023 04:46 11,4 C 10,6 C 7,2 C 93 % 1025,8 hPa 0,0 l/m 0 min 0 min 0 W/m 0,0 km/h (0 Bft) 97,83 %
06.10.2023 04:48 11,4 C 10,6 C 7,2 C 93 % 1025,8 hPa 0,0 l/m 0 min 0 min 0 W/m 0,0 km/h (0 Bft) 97,87 %
06.10.2023 04:50 11,4 C 10,6 C 7,2 C 93 % 1025,8 hPa 0,0 l/m 0 min 0 min 0 W/m 3,2 km/h (1 Bft) 100,00 %
06.10.2023 04:55 11,3 C 10,6 C 7,2 C 93 % 1025,8 hPa 0,0 l/m 0 min 0 min 0 W/m 0,0 km/h (0 Bft) 100,00 %
06.10.2023 05:00 11,3 C 10,6 C 7,2 C 93 % 1025,8 hPa 0,0 l/m 0 min 0 min 0 W/m 0,0 km/h (0 Bft) 100,00 %
06.10.2023 05:05 11,3 C 10,6 C 7,2 C 93 % 1025,8 hPa 0,0 l/m 0 min 0 min 0 W/m 0,0 km/h (0 Bft) 100,00 %
06.10.2023 05:10 11,2 C 10,6 C 7,2 C 93 % 1025,8 hPa 0,0 l/m 0 min 0 min 0 W/m 3,2 km/h (1 Bft) 100,00 %
06.10.2023 05:15 11,2 C 10,6 C 7,2 C 93 % 1025,8 hPa 0,0 l/m 0 min 0 min 0 W/m 3,2 km/h (1 Bft) 100,00 %
06.10.2023 05:20 11,2 C 10,6 C 7,2 C 93 % 1025,8 hPa 0,0 l/m 0 min 0 min 0 W/m 3,2 km/h (1 Bft) 100,00 %
06.10.2023 05:25 11,1 C 10,0 C 7,2 C 93 % 1025,8 hPa 0,0 l/m 0 min 0 min 0 W/m 3,2 km/h (1 Bft) 100,00 %
06.10.2023 05:30 11,1 C 10,0 C 7,2 C 93 % 1025,8 hPa 0,0 l/m 0 min 0 min 0 W/m 3,2 km/h (1 Bft) 100,00 %
06.10.2023 05:35 11,1 C 10,0 C 7,2 C 93 % 1025,9 hPa 0,0 l/m 0 min 0 min 0 W/m 3,2 km/h (1 Bft) 100,00 %
06.10.2023 05:40 11,1 C 10,0 C 7,2 C 93 % 1025,9 hPa 0,0 l/m 0 min 0 min 0 W/m 3,2 km/h (1 Bft) 100,00 %
06.10.2023 05:45 11,0 C 10,0 C 7,2 C 93 % 1025,9 hPa 0,0 l/m 0 min 0 min 0 W/m 6,4 km/h (2 Bft) 100,00 %
06.10.2023 05:50 11,0 C 10,0 C 7,2 C 93 % 1025,8 hPa 0,0 l/m 0 min 0 min 0 W/m 3,2 km/h (1 Bft) 100,00 %
06.10.2023 05:55 10,9 C 10,0 C 7,2 C 93 % 1025,9 hPa 0,0 l/m 0 min 0 min 0 W/m 6,4 km/h (2 Bft) 99,12 %
06.10.2023 06:00 10,9 C 10,0 C 7,2 C 93 % 1025,8 hPa 0,0 l/m 0 min 0 min 0 W/m 6,4 km/h (2 Bft) 100,00 %
06.10.2023 06:06 10,9 C 10,0 C 7,2 C 93 % 1025,8 hPa 0,0 l/m 0 min 0 min 0 W/m 0,0 km/h (0 Bft) 97,26 %
06.10.2023 06:08 10,9 C 10,0 C 7,2 C 94 % 1025,8 hPa 0,0 l/m 0 min 0 min 0 W/m 3,2 km/h (1 Bft) 96,30 %
06.10.2023 06:10 10,9 C 10,0 C 7,2 C 94 % 1025,8 hPa 0,0 l/m 0 min 0 min 0 W/m 3,2 km/h (1 Bft) 95,65 %
06.10.2023 06:16 10,9 C 10,0 C 7,2 C 94 % 1025,7 hPa 0,0 l/m 0 min 0 min 0 W/m 3,2 km/h (1 Bft) 100,00 %
06.10.2023 06:18 10,9 C 10,0 C 7,2 C 94 % 1025,6 hPa 0,0 l/m 0 min 0 min 0 W/m 3,2 km/h (1 Bft) 97,92 %
06.10.2023 06:20 10,9 C 10,0 C 7,2 C 94 % 1025,5 hPa 0,0 l/m 0 min 0 min 0 W/m 3,2 km/h (1 Bft) 97,87 %
06.10.2023 06:22 10,9 C 10,0 C 7,2 C 94 % 1025,6 hPa 0,0 l/m 0 min 0 min 0 W/m 3,2 km/h (1 Bft) 97,87 %
06.10.2023 06:24 10,9 C 10,0 C 7,2 C 94 % 1025,6 hPa 0,0 l/m 0 min 0 min 0 W/m 3,2 km/h (1 Bft) 96,77 %
06.10.2023 06:26 10,9 C 10,0 C 7,2 C 94 % 1025,6 hPa 0,0 l/m 0 min 0 min 0 W/m 3,2 km/h (1 Bft) 100,00 %
06.10.2023 06:28 10,9 C 10,0 C 7,2 C 94 % 1025,6 hPa 0,0 l/m 0 min 0 min 0 W/m 3,2 km/h (1 Bft) 100,00 %
06.10.2023 06:30 10,9 C 10,0 C 7,2 C 94 % 1025,5 hPa 0,0 l/m 0 min 0 min 0 W/m 3,2 km/h (1 Bft) 100,00 %
06.10.2023 06:32 10,8 C 10,0 C 7,2 C 94 % 1025,5 hPa 0,0 l/m 0 min 0 min 0 W/m 3,2 km/h (1 Bft) 100,00 %
06.10.2023 06:34 10,8 C 10,0 C 7,2 C 94 % 1025,5 hPa 0,0 l/m 0 min 0 min 0 W/m 6,4 km/h (2 Bft) 97,87 %
06.10.2023 06:36 10,8 C 10,0 C 7,2 C 94 % 1025,5 hPa 0,0 l/m 0 min 0 min 0 W/m 3,2 km/h (1 Bft) 100,00 %
06.10.2023 06:38 10,8 C 10,0 C 7,2 C 94 % 1025,4 hPa 0,0 l/m 0 min 0 min 0 W/m 0,0 km/h (0 Bft) 100,00 %
06.10.2023 06:40 10,8 C 10,0 C 7,2 C 94 % 1025,4 hPa 0,0 l/m 0 min 0 min 0 W/m 3,2 km/h (1 Bft) 100,00 %
06.10.2023 06:42 10,8 C 10,0 C 7,2 C 94 % 1025,4 hPa 0,0 l/m 0 min 0 min 0 W/m 3,2 km/h (1 Bft) 100,00 %
06.10.2023 06:44 10,8 C 10,0 C 7,2 C 94 % 1025,4 hPa 0,0 l/m 0 min 0 min 0 W/m 0,0 km/h (0 Bft) 100,00 %
06.10.2023 06:46 10,8 C 10,0 C 7,2 C 94 % 1025,3 hPa 0,0 l/m 0 min 0 min 0 W/m 3,2 km/h (1 Bft) 100,00 %
06.10.2023 06:48 10,8 C 10,0 C 7,2 C 94 % 1025,3 hPa 0,0 l/m 0 min 0 min 0 W/m 0,0 km/h (0 Bft) 100,00 %
06.10.2023 06:50 10,8 C 10,0 C 7,2 C 94 % 1025,3 hPa 0,0 l/m 0 min 0 min 0 W/m 3,2 km/h (1 Bft) 100,00 %
06.10.2023 06:52 10,8 C 10,0 C 7,2 C 94 % 1025,4 hPa 0,0 l/m 0 min 0 min 0 W/m 3,2 km/h (1 Bft) 97,87 %
06.10.2023 06:54 10,8 C 10,0 C 7,2 C 94 % 1025,4 hPa 0,0 l/m 0 min 0 min 0 W/m 3,2 km/h (1 Bft) 100,00 %
06.10.2023 06:56 10,8 C 10,0 C 7,2 C 94 % 1025,4 hPa 0,0 l/m 0 min 0 min 0 W/m 6,4 km/h (2 Bft) 97,83 %
06.10.2023 06:58 10,8 C 10,0 C 7,2 C 94 % 1025,5 hPa 0,0 l/m 0 min 0 min 0 W/m 3,2 km/h (1 Bft) 95,74 %
06.10.2023 07:00 10,8 C 10,0 C 7,2 C 94 % 1025,5 hPa 0,0 l/m 0 min 0 min 0 W/m 0,0 km/h (0 Bft) 97,87 %
06.10.2023 07:02 10,8 C 10,0 C 7,2 C 94 % 1025,5 hPa 0,0 l/m 0 min 0 min 0 W/m 3,2 km/h (1 Bft) 97,87 %
06.10.2023 07:04 10,8 C 10,0 C 7,2 C 94 % 1025,5 hPa 0,0 l/m 0 min 0 min 0 W/m 3,2 km/h (1 Bft) 97,44 %
06.10.2023 07:08 10,7 C 10,0 C 7,2 C 94 % 1025,3 hPa 0,0 l/m 0 min 0 min 0 W/m 3,2 km/h (1 Bft) 95,88 %
06.10.2023 07:10 10,7 C 10,0 C 6,7 C 94 % 1025,3 hPa 0,0 l/m 0 min 0 min 0 W/m 3,2 km/h (1 Bft) 97,92 %
06.10.2023 07:12 10,7 C 10,0 C 6,7 C 94 % 1025,3 hPa 0,0 l/m 0 min 0 min 0 W/m 3,2 km/h (1 Bft) 97,87 %
06.10.2023 07:14 10,7 C 10,0 C 6,7 C 94 % 1025,3 hPa 0,0 l/m 0 min 0 min 0 W/m 3,2 km/h (1 Bft) 97,87 %
06.10.2023 07:16 10,7 C 10,0 C 6,7 C 94 % 1025,4 hPa 0,0 l/m 0 min 0 min 0 W/m 3,2 km/h (1 Bft) 97,83 %
06.10.2023 07:18 10,7 C 10,0 C 6,7 C 94 % 1025,4 hPa 0,0 l/m 0 min 0 min 0 W/m 3,2 km/h (1 Bft) 95,74 %
06.10.2023 07:20 10,6 C 10,0 C 6,7 C 94 % 1025,4 hPa 0,0 l/m 0 min 0 min 0 W/m 0,0 km/h (0 Bft) 97,87 %
06.10.2023 07:22 10,6 C 10,0 C 6,7 C 94 % 1025,4 hPa 0,0 l/m 0 min 0 min 0 W/m 0,0 km/h (0 Bft) 95,74 %
06.10.2023 07:24 10,6 C 10,0 C 6,7 C 94 % 1025,4 hPa 0,0 l/m 0 min 0 min 0 W/m 3,2 km/h (1 Bft) 97,87 %
06.10.2023 07:26 10,6 C 10,0 C 6,7 C 94 % 1025,4 hPa 0,0 l/m 0 min 0 min 0 W/m 0,0 km/h (0 Bft) 97,87 %
06.10.2023 07:28 10,6 C 10,0 C 6,7 C 94 % 1025,4 hPa 0,0 l/m 0 min 0 min 0 W/m 0,0 km/h (0 Bft) 95,74 %
06.10.2023 07:30 10,6 C 10,0 C 6,7 C 94 % 1025,4 hPa 0,0 l/m 0 min 0 min 0 W/m 0,0 km/h (0 Bft) 97,87 %
06.10.2023 07:32 10,6 C 10,0 C 6,7 C 94 % 1025,3 hPa 0,0 l/m 0 min 0 min 0 W/m 3,2 km/h (1 Bft) 97,87 %
06.10.2023 07:34 10,6 C 10,0 C 6,7 C 94 % 1025,3 hPa 0,0 l/m 0 min 0 min 0 W/m 3,2 km/h (1 Bft) 93,62 %
06.10.2023 07:36 10,6 C 10,0 C 6,7 C 94 % 1025,4 hPa 0,0 l/m 0 min 0 min 3 W/m 3,2 km/h (1 Bft) 95,74 %
06.10.2023 07:38 10,6 C 10,0 C 6,7 C 94 % 1025,4 hPa 0,0 l/m 0 min 0 min 5 W/m 0,0 km/h (0 Bft) 95,65 %
06.10.2023 07:40 10,6 C 10,0 C 6,7 C 94 % 1025,4 hPa 0,0 l/m 0 min 0 min 5 W/m 0,0 km/h (0 Bft) 93,62 %
06.10.2023 07:42 10,6 C 10,0 C 6,7 C 94 % 1025,3 hPa 0,0 l/m 0 min 0 min 5 W/m 0,0 km/h (0 Bft) 93,62 %
06.10.2023 07:44 10,5 C 10,0 C 6,7 C 94 % 1025,4 hPa 0,0 l/m 0 min 0 min 5 W/m 0,0 km/h (0 Bft) 93,62 %
06.10.2023 07:46 10,5 C 10,0 C 6,7 C 94 % 1025,4 hPa 0,0 l/m 0 min 0 min 5 W/m 0,0 km/h (0 Bft) 95,74 %
06.10.2023 07:48 10,5 C 10,0 C 6,7 C 94 % 1025,3 hPa 0,0 l/m 0 min 0 min 5 W/m 0,0 km/h (0 Bft) 91,49 %
06.10.2023 07:50 10,5 C 10,0 C 6,7 C 94 % 1025,3 hPa 0,0 l/m 0 min 0 min 7 W/m 0,0 km/h (0 Bft) 93,62 %
06.10.2023 07:52 10,5 C 10,0 C 6,7 C 94 % 1025,4 hPa 0,0 l/m 0 min 0 min 9 W/m 0,0 km/h (0 Bft) 95,74 %
06.10.2023 07:54 10,5 C 10,0 C 6,7 C 94 % 1025,4 hPa 0,0 l/m 0 min 0 min 9 W/m 0,0 km/h (0 Bft) 97,62 %
06.10.2023 07:56 10,5 C 10,0 C 6,7 C 94 % 1025,5 hPa 0,0 l/m 0 min 0 min 11 W/m 0,0 km/h (0 Bft) 95,83 %
06.10.2023 07:58 10,5 C 10,0 C 6,7 C 94 % 1025,4 hPa 0,0 l/m 0 min 0 min 12 W/m 0,0 km/h (0 Bft) 95,74 %
06.10.2023 08:00 10,5 C 10,0 C 7,2 C 94 % 1025,5 hPa 0,0 l/m 0 min 0 min 12 W/m 0,0 km/h (0 Bft) 95,74 %
06.10.2023 08:02 10,5 C 10,0 C 7,2 C 94 % 1025,5 hPa 0,0 l/m 0 min 0 min 14 W/m 0,0 km/h (0 Bft) 93,48 %
06.10.2023 08:04 10,5 C 10,0 C 6,7 C 94 % 1025,5 hPa 0,0 l/m 0 min 0 min 15 W/m 0,0 km/h (0 Bft) 95,74 %
06.10.2023 08:06 10,5 C 10,0 C 6,7 C 94 % 1025,5 hPa 0,0 l/m 0 min 0 min 17 W/m 0,0 km/h (0 Bft) 91,67 %
06.10.2023 08:08 10,5 C 10,0 C 7,2 C 94 % 1025,5 hPa 0,0 l/m 0 min 0 min 19 W/m 0,0 km/h (0 Bft) 44,74 %
06.10.2023 08:10 10,5 C 10,0 C 7,2 C 94 % 1025,4 hPa 0,0 l/m 0 min 0 min 22 W/m 3,2 km/h (1 Bft) 95,74 %
06.10.2023 08:12 10,5 C 10,0 C 7,2 C 94 % 1025,5 hPa 0,0 l/m 0 min 0 min 25 W/m 3,2 km/h (1 Bft) 97,87 %
06.10.2023 08:14 10,6 C 10,0 C 7,2 C 94 % 1025,6 hPa 0,0 l/m 0 min 0 min 26 W/m 6,4 km/h (2 Bft) 95,74 %
06.10.2023 08:16 10,6 C 10,0 C 7,2 C 94 % 1025,5 hPa 0,0 l/m 0 min 0 min 26 W/m 6,4 km/h (2 Bft) 97,87 %
06.10.2023 08:18 10,6 C 10,6 C 7,2 C 94 % 1025,6 hPa 0,0 l/m 0 min 0 min 28 W/m 0,0 km/h (0 Bft) 97,83 %
06.10.2023 08:20 10,6 C 10,6 C 7,2 C 94 % 1025,6 hPa 0,0 l/m 0 min 0 min 33 W/m 3,2 km/h (1 Bft) 95,74 %
06.10.2023 08:22 10,6 C 10,6 C 7,2 C 94 % 1025,7 hPa 0,0 l/m 0 min 0 min 36 W/m 3,2 km/h (1 Bft) 95,74 %
06.10.2023 08:24 10,7 C 10,6 C 7,2 C 94 % 1025,6 hPa 0,0 l/m 0 min 0 min 39 W/m 6,4 km/h (2 Bft) 97,87 %
06.10.2023 08:26 10,7 C 10,6 C 7,8 C 95 % 1025,6 hPa 0,0 l/m 0 min 0 min 43 W/m 0,0 km/h (0 Bft) 95,74 %
06.10.2023 08:28 10,7 C 11,1 C 7,8 C 95 % 1025,6 hPa 0,0 l/m 0 min 0 min 46 W/m 0,0 km/h (0 Bft) 97,87 %
06.10.2023 08:30 10,8 C 11,1 C 7,8 C 95 % 1025,6 hPa 0,0 l/m 0 min 0 min 49 W/m 0,0 km/h (0 Bft) 95,74 %
06.10.2023 08:32 10,8 C 11,1 C 7,8 C 95 % 1025,6 hPa 0,0 l/m 0 min 0 min 53 W/m 9,7 km/h (2 Bft) 93,62 %
06.10.2023 08:34 10,9 C 11,1 C 7,8 C 95 % 1025,6 hPa 0,0 l/m 0 min 0 min 56 W/m 6,4 km/h (2 Bft) 97,83 %
06.10.2023 08:36 10,9 C 11,7 C 7,8 C 95 % 1025,6 hPa 0,0 l/m 0 min 0 min 59 W/m 9,7 km/h (2 Bft) 97,87 %
06.10.2023 08:38 11,0 C 11,7 C 8,3 C 95 % 1025,7 hPa 0,0 l/m 0 min 0 min 62 W/m 9,7 km/h (2 Bft) 95,74 %
06.10.2023 08:40 11,1 C 11,7 C 8,3 C 95 % 1025,6 hPa 0,0 l/m 0 min 0 min 62 W/m 6,4 km/h (2 Bft) 97,87 %
06.10.2023 08:42 11,1 C 11,7 C 8,3 C 95 % 1025,6 hPa 0,0 l/m 0 min 0 min 62 W/m 6,4 km/h (2 Bft) 97,87 %
06.10.2023 08:44 11,2 C 11,7 C 8,3 C 95 % 1025,6 hPa 0,0 l/m 0 min 0 min 62 W/m 12,9 km/h (3 Bft) 97,87 %
06.10.2023 08:46 11,3 C 11,7 C 8,3 C 95 % 1025,6 hPa 0,0 l/m 0 min 0 min 60 W/m 6,4 km/h (2 Bft) 97,87 %
06.10.2023 08:48 11,4 C 11,7 C 8,3 C 95 % 1025,6 hPa 0,0 l/m 0 min 0 min 58 W/m 12,9 km/h (3 Bft) 100,00 %
06.10.2023 08:50 11,4 C 11,7 C 8,3 C 95 % 1025,6 hPa 0,0 l/m 0 min 0 min 56 W/m 6,4 km/h (2 Bft) 97,87 %
06.10.2023 08:52 11,5 C 11,7 C 8,3 C 95 % 1025,7 hPa 0,0 l/m 0 min 0 min 56 W/m 12,9 km/h (3 Bft) 97,83 %
06.10.2023 08:54 11,6 C 12,2 C 8,3 C 95 % 1025,7 hPa 0,0 l/m 0 min 0 min 58 W/m 16,1 km/h (3 Bft) 100,00 %
06.10.2023 08:56 11,7 C 12,2 C 8,3 C 95 % 1025,7 hPa 0,0 l/m 0 min 0 min 62 W/m 9,7 km/h (2 Bft) 100,00 %
06.10.2023 08:58 11,7 C 12,2 C 8,9 C 95 % 1025,7 hPa 0,0 l/m 0 min 0 min 66 W/m 16,1 km/h (3 Bft) 97,87 %
06.10.2023 09:00 11,8 C 12,2 C 8,9 C 94 % 1025,7 hPa 0,0 l/m 0 min 0 min 69 W/m 12,9 km/h (3 Bft) 100,00 %
06.10.2023 09:02 11,8 C 12,2 C 8,9 C 94 % 1025,7 hPa 0,0 l/m 0 min 0 min 70 W/m 12,9 km/h (3 Bft) 97,87 %
06.10.2023 09:04 11,9 C 12,2 C 8,9 C 94 % 1025,7 hPa 0,0 l/m 0 min 0 min 74 W/m 9,7 km/h (2 Bft) 100,00 %
06.10.2023 09:06 11,9 C 12,2 C 8,9 C 94 % 1025,7 hPa 0,0 l/m 0 min 0 min 78 W/m 9,7 km/h (2 Bft) 100,00 %
06.10.2023 09:08 12,0 C 12,2 C 8,9 C 94 % 1025,8 hPa 0,0 l/m 0 min 0 min 83 W/m 19,3 km/h (3 Bft) 100,00 %
06.10.2023 09:10 12,1 C 12,2 C 8,9 C 94 % 1025,8 hPa 0,0 l/m 0 min 0 min 83 W/m 6,4 km/h (2 Bft) 97,87 %
06.10.2023 09:12 12,1 C 12,2 C 8,9 C 93 % 1025,8 hPa 0,0 l/m 0 min 0 min 82 W/m 9,7 km/h (2 Bft) 100,00 %
06.10.2023 09:14 12,1 C 12,2 C 8,9 C 93 % 1025,8 hPa 0,0 l/m 0 min 0 min 83 W/m 12,9 km/h (3 Bft) 100,00 %
06.10.2023 09:16 12,2 C 12,2 C 8,9 C 93 % 1025,8 hPa 0,0 l/m 0 min 0 min 82 W/m 9,7 km/h (2 Bft) 100,00 %
06.10.2023 09:18 12,2 C 12,2 C 8,9 C 93 % 1025,7 hPa 0,0 l/m 0 min 0 min 79 W/m 16,1 km/h (3 Bft) 100,00 %
06.10.2023 09:20 12,3 C 12,8 C 8,9 C 93 % 1025,7 hPa 0,0 l/m 0 min 0 min 78 W/m 9,7 km/h (2 Bft) 95,74 %
06.10.2023 09:22 12,3 C 12,8 C 8,9 C 92 % 1025,7 hPa 0,0 l/m 0 min 0 min 78 W/m 9,7 km/h (2 Bft) 97,92 %
06.10.2023 09:24 12,3 C 12,8 C 8,9 C 92 % 1025,7 hPa 0,0 l/m 0 min 0 min 81 W/m 6,4 km/h (2 Bft) 100,00 %
06.10.2023 09:26 12,4 C 12,8 C 8,9 C 92 % 1025,7 hPa 0,0 l/m 0 min 0 min 81 W/m 19,3 km/h (3 Bft) 97,87 %
06.10.2023 09:28 12,4 C 12,8 C 8,9 C 92 % 1025,7 hPa 0,0 l/m 0 min 0 min 81 W/m 19,3 km/h (3 Bft) 97,87 %
06.10.2023 09:30 12,5 C 12,8 C 8,9 C 92 % 1025,7 hPa 0,0 l/m 0 min 0 min 82 W/m 3,2 km/h (1 Bft) 97,83 %
06.10.2023 09:32 12,5 C 12,8 C 8,9 C 92 % 1025,7 hPa 0,0 l/m 0 min 0 min 85 W/m 9,7 km/h (2 Bft) 95,74 %
06.10.2023 09:34 12,6 C 12,8 C 8,9 C 92 % 1025,7 hPa 0,0 l/m 0 min 0 min 90 W/m 6,4 km/h (2 Bft) 97,87 %
06.10.2023 09:36 12,6 C 12,8 C 8,9 C 92 % 1025,7 hPa 0,0 l/m 0 min 0 min 93 W/m 6,4 km/h (2 Bft) 97,87 %
06.10.2023 09:38 12,7 C 12,8 C 8,9 C 91 % 1025,7 hPa 0,0 l/m 0 min 0 min 96 W/m 6,4 km/h (2 Bft) 97,87 %
06.10.2023 09:40 12,7 C 12,8 C 9,4 C 91 % 1025,7 hPa 0,0 l/m 0 min 0 min 99 W/m 3,2 km/h (1 Bft) 95,74 %
06.10.2023 09:42 12,7 C 12,8 C 9,4 C 91 % 1025,6 hPa 0,0 l/m 0 min 0 min 99 W/m 12,9 km/h (3 Bft) 97,87 %
06.10.2023 09:44 12,8 C 12,8 C 9,4 C 91 % 1025,7 hPa 0,0 l/m 0 min 0 min 94 W/m 12,9 km/h (3 Bft) 97,87 %
06.10.2023 09:46 12,8 C 13,3 C 9,4 C 91 % 1025,7 hPa 0,0 l/m 0 min 0 min 90 W/m 6,4 km/h (2 Bft) 97,87 %
06.10.2023 09:48 12,9 C 13,3 C 9,4 C 91 % 1025,6 hPa 0,0 l/m 0 min 0 min 84 W/m 9,7 km/h (2 Bft) 97,87 %
06.10.2023 09:50 12,9 C 13,3 C 9,4 C 91 % 1025,7 hPa 0,0 l/m 0 min 0 min 81 W/m 16,1 km/h (3 Bft) 97,83 %
06.10.2023 09:52 13,0 C 13,3 C 9,4 C 91 % 1025,6 hPa 0,0 l/m 0 min 0 min 78 W/m 12,9 km/h (3 Bft) 93,62 %
06.10.2023 09:54 13,1 C 13,3 C 9,4 C 91 % 1025,7 hPa 0,0 l/m 0 min 0 min 77 W/m 12,9 km/h (3 Bft) 100,00 %
06.10.2023 09:56 13,1 C 13,3 C 9,4 C 90 % 1025,6 hPa 0,0 l/m 0 min 0 min 73 W/m 6,4 km/h (2 Bft) 97,87 %
06.10.2023 09:58 13,2 C 13,3 C 9,4 C 90 % 1025,6 hPa 0,0 l/m 0 min 0 min 70 W/m 6,4 km/h (2 Bft) 98,00 %
06.10.2023 10:00 13,2 C 13,3 C 9,4 C 90 % 1025,6 hPa 0,0 l/m 0 min 0 min 69 W/m 22,5 km/h (4 Bft) 95,74 %
06.10.2023 10:02 13,3 C 13,3 C 9,4 C 90 % 1025,7 hPa 0,0 l/m 0 min 0 min 72 W/m 22,5 km/h (4 Bft) 97,87 %
06.10.2023 10:04 13,3 C 13,3 C 9,4 C 90 % 1025,7 hPa 0,0 l/m 0 min 0 min 78 W/m 16,1 km/h (3 Bft) 96,08 %
06.10.2023 10:06 13,3 C 13,3 C 9,4 C 89 % 1025,6 hPa 0,0 l/m 0 min 0 min 75 W/m 16,1 km/h (3 Bft) 97,83 %
06.10.2023 10:08 13,4 C 13,3 C 9,4 C 89 % 1025,6 hPa 0,0 l/m 0 min 0 min 72 W/m 16,1 km/h (3 Bft) 93,62 %
06.10.2023 10:10 13,4 C 13,3 C 9,4 C 89 % 1025,7 hPa 0,0 l/m 0 min 0 min 73 W/m 16,1 km/h (3 Bft) 97,87 %
06.10.2023 10:12 13,5 C 13,3 C 9,4 C 89 % 1025,6 hPa 0,0 l/m 0 min 0 min 71 W/m 22,5 km/h (4 Bft) 97,87 %
06.10.2023 10:14 13,6 C 13,9 C 9,4 C 89 % 1025,7 hPa 0,0 l/m 0 min 0 min 78 W/m 19,3 km/h (3 Bft) 94,44 %
06.10.2023 10:16 13,6 C 13,9 C 9,4 C 89 % 1025,7 hPa 0,0 l/m 0 min 0 min 80 W/m 12,9 km/h (3 Bft) 97,87 %
06.10.2023 10:18 13,6 C 13,9 C 10,0 C 89 % 1025,6 hPa 0,0 l/m 0 min 0 min 71 W/m 19,3 km/h (3 Bft) 97,87 %
06.10.2023 10:20 13,7 C 14,4 C 10,0 C 89 % 1025,7 hPa 0,0 l/m 0 min 0 min 70 W/m 12,9 km/h (3 Bft) 97,87 %
06.10.2023 10:22 13,8 C 14,4 C 10,0 C 89 % 1025,6 hPa 0,0 l/m 0 min 0 min 69 W/m 9,7 km/h (2 Bft) 97,87 %
06.10.2023 10:24 13,8 C 15,0 C 10,0 C 89 % 1025,6 hPa 0,0 l/m 0 min 0 min 70 W/m 6,4 km/h (2 Bft) 93,62 %
06.10.2023 10:26 13,9 C 15,0 C 10,0 C 88 % 1025,6 hPa 0,0 l/m 0 min 0 min 69 W/m 6,4 km/h (2 Bft) 97,87 %
06.10.2023 10:28 13,9 C 14,4 C 10,0 C 88 % 1025,6 hPa 0,0 l/m 0 min 0 min 69 W/m 9,7 km/h (2 Bft) 54,35 %
06.10.2023 10:30 14,1 C 14,4 C 10,0 C 88 % 1025,7 hPa 0,0 l/m 0 min 0 min 70 W/m 22,5 km/h (4 Bft) 97,44 %
06.10.2023 10:32 14,2 C 14,4 C 10,0 C 88 % 1025,7 hPa 0,0 l/m 0 min 0 min 75 W/m 12,9 km/h (3 Bft) 97,92 %
06.10.2023 10:34 14,3 C 14,4 C 10,0 C 87 % 1025,7 hPa 0,0 l/m 0 min 0 min 80 W/m 12,9 km/h (3 Bft) 95,74 %
06.10.2023 10:36 14,3 C 14,4 C 10,6 C 87 % 1025,7 hPa 0,0 l/m 0 min 0 min 111 W/m 16,1 km/h (3 Bft) 97,87 %
06.10.2023 10:38 14,3 C 15,0 C 10,6 C 87 % 1025,7 hPa 0,0 l/m 0 min 0 min 100 W/m 19,3 km/h (3 Bft) 97,87 %
06.10.2023 10:40 14,3 C 15,0 C 10,6 C 87 % 1025,7 hPa 0,0 l/m 0 min 0 min 113 W/m 12,9 km/h (3 Bft) 97,87 %
06.10.2023 10:42 14,4 C 15,0 C 10,6 C 87 % 1025,7 hPa 0,0 l/m 0 min 0 min 96 W/m 9,7 km/h (2 Bft) 97,87 %
06.10.2023 10:44 14,5 C 15,0 C 10,6 C 86 % 1025,8 hPa 0,0 l/m 0 min 0 min 75 W/m 12,9 km/h (3 Bft) 95,74 %
06.10.2023 10:46 14,6 C 15,0 C 10,6 C 86 % 1025,8 hPa 0,0 l/m 0 min 0 min 111 W/m 16,1 km/h (3 Bft) 95,74 %
06.10.2023 10:48 14,7 C 15,0 C 10,6 C 86 % 1025,9 hPa 0,0 l/m 0 min 0 min 126 W/m 16,1 km/h (3 Bft) 97,87 %
06.10.2023 10:50 14,8 C 15,0 C 10,6 C 85 % 1025,8 hPa 0,0 l/m 0 min 0 min 127 W/m 12,9 km/h (3 Bft) 95,74 %
06.10.2023 10:52 14,8 C 15,0 C 10,6 C 85 % 1025,8 hPa 0,0 l/m 0 min 0 min 88 W/m 16,1 km/h (3 Bft) 97,87 %
06.10.2023 10:54 14,9 C 15,6 C 11,1 C 85 % 1025,8 hPa 0,0 l/m 0 min 0 min 142 W/m 12,9 km/h (3 Bft) 97,87 %
06.10.2023 10:56 15,1 C 15,6 C 11,1 C 84 % 1025,8 hPa 0,0 l/m 0 min 0 min 105 W/m 19,3 km/h (3 Bft) 95,74 %
06.10.2023 10:58 15,1 C 15,6 C 11,1 C 84 % 1025,8 hPa 0,0 l/m 0 min 0 min 99 W/m 9,7 km/h (2 Bft) 97,87 %
06.10.2023 11:00 15,2 C 15,6 C 11,1 C 84 % 1025,8 hPa 0,0 l/m 0 min 0 min 97 W/m 19,3 km/h (3 Bft) 97,87 %
06.10.2023 11:02 15,3 C 16,1 C 11,1 C 84 % 1025,9 hPa 0,0 l/m 0 min 0 min 94 W/m 12,9 km/h (3 Bft) 97,62 %
06.10.2023 11:04 15,4 C 16,7 C 11,1 C 83 % 1025,8 hPa 0,0 l/m 0 min 0 min 110 W/m 12,9 km/h (3 Bft) 97,87 %
06.10.2023 11:08 15,6 C 17,2 C 11,7 C 82 % 1025,8 hPa 0,0 l/m 0 min 0 min 83 W/m 22,5 km/h (4 Bft) 98,02 %
06.10.2023 11:10 15,7 C 17,8 C 11,7 C 82 % 1025,8 hPa 0,0 l/m 0 min 0 min 109 W/m 12,9 km/h (3 Bft) 97,87 %
06.10.2023 11:12 15,7 C 17,8 C 11,7 C 82 % 1025,8 hPa 0,0 l/m 0 min 0 min 102 W/m 12,9 km/h (3 Bft) 97,83 %
06.10.2023 11:14 15,8 C 17,2 C 11,7 C 82 % 1025,8 hPa 0,0 l/m 0 min 0 min 116 W/m 12,9 km/h (3 Bft) 95,74 %
06.10.2023 11:16 15,9 C 17,8 C 11,7 C 81 % 1025,9 hPa 0,0 l/m 0 min 0 min 138 W/m 12,9 km/h (3 Bft) 97,87 %
06.10.2023 11:18 16,0 C 17,8 C 12,2 C 81 % 1025,8 hPa 0,0 l/m 0 min 0 min 158 W/m 9,7 km/h (2 Bft) 97,87 %
06.10.2023 11:20 16,1 C 18,3 C 12,2 C 80 % 1025,8 hPa 0,0 l/m 2 min 0 min 239 W/m 9,7 km/h (2 Bft) 97,87 %
06.10.2023 11:22 16,2 C 18,3 C 12,2 C 80 % 1025,9 hPa 0,0 l/m 2 min 0 min 446 W/m 9,7 km/h (2 Bft) 97,87 %
06.10.2023 11:24 16,2 C 18,9 C 12,8 C 80 % 1025,9 hPa 0,0 l/m 2 min 0 min 420 W/m 22,5 km/h (4 Bft) 97,87 %
06.10.2023 11:26 16,3 C 18,9 C 12,8 C 80 % 1025,8 hPa 0,0 l/m 2 min 0 min 332 W/m 22,5 km/h (4 Bft) 95,74 %
06.10.2023 11:28 16,4 C 18,9 C 13,3 C 79 % 1025,8 hPa 0,0 l/m 2 min 0 min 400 W/m 25,7 km/h (4 Bft) 97,87 %
06.10.2023 11:30 16,4 C 18,9 C 13,3 C 79 % 1025,8 hPa 0,0 l/m 2 min 0 min 424 W/m 22,5 km/h (4 Bft) 97,87 %
06.10.2023 11:32 16,4 C 18,9 C 13,9 C 78 % 1025,8 hPa 0,0 l/m 2 min 0 min 350 W/m 16,1 km/h (3 Bft) 97,92 %
06.10.2023 11:34 16,6 C 18,9 C 14,4 C 78 % 1025,7 hPa 0,0 l/m 2 min 0 min 355 W/m 16,1 km/h (3 Bft) 95,74 %
06.10.2023 11:36 16,6 C 19,4 C 14,4 C 79 % 1025,8 hPa 0,0 l/m 2 min 0 min 399 W/m 16,1 km/h (3 Bft) 95,74 %
06.10.2023 11:38 16,7 C 19,4 C 14,4 C 78 % 1025,8 hPa 0,0 l/m 2 min 0 min 426 W/m 19,3 km/h (3 Bft) 95,74 %
06.10.2023 11:40 16,8 C 18,9 C 14,4 C 78 % 1025,8 hPa 0,0 l/m 2 min 0 min 465 W/m 22,5 km/h (4 Bft) 93,62 %
06.10.2023 11:42 16,9 C 19,4 C 13,9 C 78 % 1025,7 hPa 0,0 l/m 2 min 0 min 493 W/m 19,3 km/h (3 Bft) 97,87 %
06.10.2023 11:44 17,0 C 19,4 C 13,9 C 78 % 1025,7 hPa 0,0 l/m 2 min 0 min 498 W/m 22,5 km/h (4 Bft) 97,87 %
06.10.2023 11:46 17,1 C 20,0 C 14,4 C 77 % 1025,6 hPa 0,0 l/m 2 min 0 min 493 W/m 9,7 km/h (2 Bft) 97,87 %
06.10.2023 11:48 17,2 C 21,1 C 14,4 C 77 % 1025,6 hPa 0,0 l/m 2 min 0 min 457 W/m 25,7 km/h (4 Bft) 95,74 %
06.10.2023 11:50 17,3 C 21,1 C 14,4 C 77 % 1025,6 hPa 0,0 l/m 2 min 0 min 469 W/m 16,1 km/h (3 Bft) 97,87 %
06.10.2023 11:52 17,4 C 20,6 C 14,4 C 77 % 1025,7 hPa 0,0 l/m 2 min 0 min 440 W/m 12,9 km/h (3 Bft) 97,83 %
06.10.2023 11:54 17,4 C 19,4 C 14,4 C 76 % 1025,6 hPa 0,0 l/m 2 min 0 min 506 W/m 25,7 km/h (4 Bft) 97,30 %
06.10.2023 11:56 17,4 C 18,9 C 14,4 C 76 % 1025,5 hPa 0,0 l/m 2 min 0 min 486 W/m 19,3 km/h (3 Bft) 97,87 %
06.10.2023 11:58 17,5 C 18,3 C 14,4 C 76 % 1025,5 hPa 0,0 l/m 2 min 0 min 428 W/m 22,5 km/h (4 Bft) 97,92 %
06.10.2023 12:00 17,6 C 18,3 C 14,4 C 75 % 1025,5 hPa 0,0 l/m 0 min 0 min 177 W/m 12,9 km/h (3 Bft) 97,87 %
06.10.2023 12:02 17,6 C 17,8 C 13,9 C 76 % 1025,5 hPa 0,0 l/m 0 min 0 min 168 W/m 12,9 km/h (3 Bft) 95,74 %
06.10.2023 12:04 17,6 C 17,8 C 13,9 C 75 % 1025,5 hPa 0,0 l/m 0 min 0 min 218 W/m 19,3 km/h (3 Bft) 96,30 %
06.10.2023 12:08 17,6 C 17,8 C 13,9 C 75 % 1025,4 hPa 0,0 l/m 0 min 0 min 213 W/m 22,5 km/h (4 Bft) 97,87 %
06.10.2023 12:10 17,6 C 17,2 C 13,3 C 75 % 1025,3 hPa 0,0 l/m 0 min 0 min 202 W/m 12,9 km/h (3 Bft) 100,00 %
06.10.2023 12:12 17,6 C 17,2 C 13,3 C 75 % 1025,2 hPa 0,0 l/m 0 min 0 min 135 W/m 12,9 km/h (3 Bft) 100,00 %
06.10.2023 12:16 17,7 C 17,8 C 13,3 C 75 % 1025,3 hPa 0,0 l/m 0 min 0 min 120 W/m 19,3 km/h (3 Bft) 100,00 %
06.10.2023 12:18 17,7 C 17,8 C 13,3 C 74 % 1025,4 hPa 0,0 l/m 0 min 0 min 144 W/m 32,2 km/h (5 Bft) 100,00 %
06.10.2023 12:20 17,7 C 17,2 C 13,3 C 73 % 1025,4 hPa 0,0 l/m 0 min 0 min 198 W/m 32,2 km/h (5 Bft) 100,00 %
06.10.2023 12:22 17,7 C 17,2 C 13,3 C 74 % 1025,4 hPa 0,0 l/m 0 min 0 min 215 W/m 29,0 km/h (5 Bft) 100,00 %
06.10.2023 12:24 17,7 C 17,2 C 13,3 C 74 % 1025,3 hPa 0,0 l/m 0 min 0 min 134 W/m 22,5 km/h (4 Bft) 100,00 %
06.10.2023 12:26 17,7 C 17,8 C 13,3 C 74 % 1025,2 hPa 0,0 l/m 0 min 0 min 107 W/m 22,5 km/h (4 Bft) 100,00 %
06.10.2023 12:28 17,7 C 17,8 C 13,3 C 74 % 1025,2 hPa 0,0 l/m 0 min 0 min 101 W/m 22,5 km/h (4 Bft) 100,00 %
06.10.2023 12:30 17,8 C 17,8 C 13,3 C 74 % 1025,3 hPa 0,0 l/m 0 min 0 min 98 W/m 22,5 km/h (4 Bft) 100,00 %
06.10.2023 12:32 17,8 C 17,2 C 13,3 C 74 % 1025,2 hPa 0,0 l/m 0 min 0 min 100 W/m 22,5 km/h (4 Bft) 100,00 %
06.10.2023 12:34 17,8 C 17,8 C 13,3 C 74 % 1025,3 hPa 0,0 l/m 0 min 0 min 102 W/m 16,1 km/h (3 Bft) 100,00 %
06.10.2023 12:36 17,9 C 17,8 C 13,3 C 74 % 1025,2 hPa 0,0 l/m 0 min 0 min 110 W/m 16,1 km/h (3 Bft) 100,00 %
06.10.2023 12:38 17,9 C 17,8 C 13,9 C 74 % 1025,1 hPa 0,0 l/m 0 min 0 min 115 W/m 12,9 km/h (3 Bft) 100,00 %
06.10.2023 12:40 18,0 C 17,8 C 13,9 C 74 % 1025,2 hPa 0,0 l/m 0 min 0 min 120 W/m 12,9 km/h (3 Bft) 95,74 %
06.10.2023 12:42 18,1 C 17,8 C 13,9 C 74 % 1025,1 hPa 0,0 l/m 0 min 0 min 128 W/m 19,3 km/h (3 Bft) 97,87 %
06.10.2023 12:44 18,1 C 17,8 C 13,9 C 74 % 1025,1 hPa 0,0 l/m 0 min 0 min 127 W/m 12,9 km/h (3 Bft) 97,87 %
06.10.2023 12:46 18,1 C 17,8 C 13,9 C 73 % 1025,1 hPa 0,0 l/m 0 min 0 min 113 W/m 19,3 km/h (3 Bft) 97,87 %
06.10.2023 12:48 18,1 C 17,8 C 13,9 C 73 % 1025,1 hPa 0,0 l/m 0 min 0 min 91 W/m 19,3 km/h (3 Bft) 95,74 %
06.10.2023 12:50 18,2 C 17,8 C 13,9 C 73 % 1025,1 hPa 0,0 l/m 0 min 0 min 84 W/m 16,1 km/h (3 Bft) 97,87 %
06.10.2023 12:52 18,2 C 17,8 C 13,9 C 73 % 1025,0 hPa 0,0 l/m 0 min 0 min 83 W/m 22,5 km/h (4 Bft) 97,87 %
06.10.2023 12:54 18,2 C 17,8 C 13,9 C 73 % 1025,0 hPa 0,0 l/m 0 min 0 min 80 W/m 19,3 km/h (3 Bft) 97,92 %
06.10.2023 12:56 18,2 C 17,8 C 13,9 C 73 % 1025,1 hPa 0,0 l/m 0 min 0 min 78 W/m 16,1 km/h (3 Bft) 97,83 %
06.10.2023 12:58 18,2 C 17,8 C 13,9 C 73 % 1025,1 hPa 0,0 l/m 0 min 0 min 76 W/m 19,3 km/h (3 Bft) 97,87 %
06.10.2023 13:00 18,2 C 17,8 C 13,9 C 73 % 1025,1 hPa 0,0 l/m 0 min 0 min 76 W/m 12,9 km/h (3 Bft) 97,87 %
06.10.2023 13:02 18,2 C 17,8 C 13,9 C 73 % 1025,0 hPa 0,0 l/m 0 min 0 min 74 W/m 19,3 km/h (3 Bft) 97,87 %
06.10.2023 13:04 18,2 C 17,8 C 13,9 C 73 % 1025,0 hPa 0,0 l/m 0 min 0 min 73 W/m 19,3 km/h (3 Bft) 92,31 %
06.10.2023 13:06 18,2 C 17,8 C 13,9 C 74 % 1025,1 hPa 0,0 l/m 0 min 0 min 72 W/m 19,3 km/h (3 Bft) 95,74 %
06.10.2023 13:08 18,3 C 17,8 C 13,9 C 73 % 1025,0 hPa 0,0 l/m 0 min 0 min 73 W/m 19,3 km/h (3 Bft) 97,87 %
06.10.2023 13:10 18,3 C 17,8 C 13,9 C 73 % 1025,0 hPa 0,0 l/m 0 min 0 min 76 W/m 12,9 km/h (3 Bft) 97,87 %
06.10.2023 13:12 18,4 C 17,8 C 13,9 C 74 % 1025,1 hPa 0,0 l/m 0 min 0 min 81 W/m 12,9 km/h (3 Bft) 95,65 %
06.10.2023 13:14 18,4 C 17,8 C 13,9 C 74 % 1025,0 hPa 0,0 l/m 0 min 0 min 88 W/m 19,3 km/h (3 Bft) 97,87 %
06.10.2023 13:16 18,4 C 17,8 C 13,9 C 73 % 1024,9 hPa 0,0 l/m 0 min 0 min 100 W/m 12,9 km/h (3 Bft) 95,74 %
06.10.2023 13:18 18,5 C 18,3 C 13,9 C 74 % 1024,9 hPa 0,0 l/m 0 min 0 min 112 W/m 12,9 km/h (3 Bft) 97,87 %
06.10.2023 13:20 18,6 C 18,3 C 13,9 C 74 % 1024,9 hPa 0,0 l/m 0 min 0 min 113 W/m 25,7 km/h (4 Bft) 95,74 %
06.10.2023 13:22 18,6 C 18,3 C 13,9 C 73 % 1025,0 hPa 0,0 l/m 0 min 0 min 125 W/m 25,7 km/h (4 Bft) 97,87 %
06.10.2023 13:24 18,6 C 18,3 C 13,9 C 73 % 1024,9 hPa 0,0 l/m 0 min 0 min 128 W/m 16,1 km/h (3 Bft) 100,00 %
06.10.2023 13:26 18,7 C 18,3 C 13,9 C 72 % 1025,0 hPa 0,0 l/m 0 min 0 min 116 W/m 29,0 km/h (5 Bft) 100,00 %
06.10.2023 13:28 18,7 C 18,3 C 13,9 C 73 % 1024,9 hPa 0,0 l/m 0 min 0 min 105 W/m 25,7 km/h (4 Bft) 97,87 %
06.10.2023 13:30 18,7 C 18,3 C 13,9 C 73 % 1024,8 hPa 0,0 l/m 0 min 0 min 113 W/m 19,3 km/h (3 Bft) 100,00 %
06.10.2023 13:32 18,7 C 18,3 C 13,9 C 73 % 1024,9 hPa 0,0 l/m 0 min 0 min 106 W/m 19,3 km/h (3 Bft) 95,74 %
06.10.2023 13:34 18,6 C 18,3 C 13,9 C 73 % 1024,8 hPa 0,0 l/m 0 min 0 min 102 W/m 12,9 km/h (3 Bft) 95,65 %
06.10.2023 13:36 18,7 C 18,3 C 13,9 C 73 % 1024,7 hPa 0,0 l/m 0 min 0 min 149 W/m 12,9 km/h (3 Bft) 97,87 %
06.10.2023 13:38 18,6 C 17,8 C 13,9 C 73 % 1024,8 hPa 0,0 l/m 0 min 0 min 210 W/m 25,7 km/h (4 Bft) 95,74 %
06.10.2023 13:40 18,6 C 18,3 C 13,9 C 73 % 1024,7 hPa 0,0 l/m 0 min 0 min 159 W/m 25,7 km/h (4 Bft) 97,87 %
06.10.2023 13:42 18,6 C 17,8 C 13,9 C 72 % 1024,8 hPa 0,0 l/m 0 min 0 min 118 W/m 25,7 km/h (4 Bft) 97,87 %
06.10.2023 13:44 18,6 C 18,3 C 13,9 C 73 % 1024,7 hPa 0,0 l/m 0 min 0 min 126 W/m 19,3 km/h (3 Bft) 97,87 %
06.10.2023 13:46 18,6 C 17,8 C 13,9 C 72 % 1024,7 hPa 0,0 l/m 0 min 0 min 111 W/m 25,7 km/h (4 Bft) 97,87 %
06.10.2023 13:48 18,6 C 17,8 C 13,9 C 73 % 1024,8 hPa 0,0 l/m 0 min 0 min 105 W/m 19,3 km/h (3 Bft) 95,74 %
06.10.2023 13:50 18,6 C 18,3 C 13,9 C 73 % 1024,6 hPa 0,0 l/m 0 min 0 min 146 W/m 19,3 km/h (3 Bft) 97,87 %
06.10.2023 13:52 18,6 C 18,3 C 13,9 C 73 % 1024,7 hPa 0,0 l/m 0 min 0 min 144 W/m 12,9 km/h (3 Bft) 97,87 %
06.10.2023 13:54 18,6 C 18,3 C 13,9 C 73 % 1024,7 hPa 0,0 l/m 0 min 0 min 131 W/m 25,7 km/h (4 Bft) 97,92 %
06.10.2023 13:56 18,6 C 18,3 C 13,9 C 72 % 1024,6 hPa 0,0 l/m 0 min 0 min 209 W/m 22,5 km/h (4 Bft) 97,83 %
06.10.2023 13:58 18,7 C 18,3 C 13,9 C 73 % 1024,6 hPa 0,0 l/m 0 min 0 min 241 W/m 29,0 km/h (5 Bft) 93,62 %
06.10.2023 14:00 18,7 C 18,3 C 13,9 C 72 % 1024,5 hPa 0,0 l/m 2 min 0 min 460 W/m 16,1 km/h (3 Bft) 97,22 %
06.10.2023 14:02 18,7 C 18,3 C 13,9 C 73 % 1024,5 hPa 0,0 l/m 2 min 0 min 520 W/m 12,9 km/h (3 Bft) 95,74 %
06.10.2023 14:04 18,8 C 18,9 C 13,9 C 73 % 1024,4 hPa 0,0 l/m 2 min 0 min 381 W/m 16,1 km/h (3 Bft) 94,12 %
06.10.2023 14:06 18,8 C 19,4 C 13,9 C 73 % 1024,4 hPa 0,0 l/m 2 min 0 min 395 W/m 16,1 km/h (3 Bft) 95,74 %
06.10.2023 14:08 18,9 C 20,0 C 14,4 C 73 % 1024,3 hPa 0,0 l/m 2 min 0 min 509 W/m 22,5 km/h (4 Bft) 97,87 %
06.10.2023 14:10 18,9 C 20,0 C 14,4 C 72 % 1024,3 hPa 0,0 l/m 2 min 0 min 565 W/m 16,1 km/h (3 Bft) 97,87 %
06.10.2023 14:12 19,1 C 20,0 C 14,4 C 72 % 1024,3 hPa 0,0 l/m 2 min 0 min 568 W/m 16,1 km/h (3 Bft) 97,87 %
06.10.2023 14:14 19,1 C 20,6 C 14,4 C 72 % 1024,3 hPa 0,0 l/m 2 min 0 min 571 W/m 12,9 km/h (3 Bft) 97,87 %
06.10.2023 14:16 19,2 C 20,6 C 14,4 C 71 % 1024,3 hPa 0,0 l/m 2 min 0 min 567 W/m 19,3 km/h (3 Bft) 93,62 %
06.10.2023 14:18 19,3 C 20,6 C 14,4 C 71 % 1024,2 hPa 0,0 l/m 2 min 0 min 556 W/m 12,9 km/h (3 Bft) 97,87 %
06.10.2023 14:20 19,3 C 20,6 C 14,4 C 72 % 1024,2 hPa 0,0 l/m 2 min 0 min 516 W/m 16,1 km/h (3 Bft) 97,83 %
06.10.2023 14:22 19,4 C 20,0 C 14,4 C 71 % 1024,3 hPa 0,0 l/m 2 min 0 min 511 W/m 16,1 km/h (3 Bft) 97,87 %
06.10.2023 14:24 19,4 C 20,0 C 14,4 C 71 % 1024,2 hPa 0,0 l/m 2 min 0 min 473 W/m 29,0 km/h (5 Bft) 97,87 %
06.10.2023 14:26 19,5 C 19,4 C 14,4 C 71 % 1024,2 hPa 0,0 l/m 2 min 0 min 436 W/m 9,7 km/h (2 Bft) 95,74 %
06.10.2023 14:28 19,5 C 19,4 C 14,4 C 71 % 1024,2 hPa 0,0 l/m 2 min 0 min 372 W/m 12,9 km/h (3 Bft) 97,87 %
06.10.2023 14:30 19,5 C 19,4 C 14,4 C 72 % 1024,2 hPa 0,0 l/m 2 min 0 min 271 W/m 19,3 km/h (3 Bft) 97,87 %
06.10.2023 14:32 19,5 C 18,9 C 14,4 C 71 % 1024,2 hPa 0,0 l/m 0 min 0 min 230 W/m 12,9 km/h (3 Bft) 95,74 %
06.10.2023 14:34 19,4 C 18,9 C 14,4 C 72 % 1024,1 hPa 0,0 l/m 0 min 0 min 240 W/m 12,9 km/h (3 Bft) 97,87 %
06.10.2023 14:36 19,4 C 19,4 C 15,0 C 72 % 1024,1 hPa 0,0 l/m 2 min 0 min 315 W/m 6,4 km/h (2 Bft) 97,87 %
06.10.2023 14:38 19,4 C 19,4 C 15,0 C 72 % 1024,0 hPa 0,0 l/m 2 min 0 min 348 W/m 12,9 km/h (3 Bft) 97,87 %
06.10.2023 14:40 19,4 C 19,4 C 15,0 C 72 % 1024,0 hPa 0,0 l/m 2 min 0 min 405 W/m 9,7 km/h (2 Bft) 97,87 %
06.10.2023 14:42 19,5 C 19,4 C 15,0 C 72 % 1024,0 hPa 0,0 l/m 2 min 0 min 443 W/m 12,9 km/h (3 Bft) 97,83 %
06.10.2023 14:44 19,6 C 19,4 C 15,0 C 73 % 1024,0 hPa 0,0 l/m 2 min 0 min 498 W/m 16,1 km/h (3 Bft) 97,87 %
06.10.2023 14:46 19,6 C 20,0 C 15,0 C 72 % 1024,0 hPa 0,0 l/m 2 min 0 min 514 W/m 19,3 km/h (3 Bft) 97,87 %
06.10.2023 14:48 19,7 C 19,4 C 15,0 C 71 % 1024,0 hPa 0,0 l/m 2 min 0 min 499 W/m 16,1 km/h (3 Bft) 97,87 %
06.10.2023 14:50 19,7 C 19,4 C 15,0 C 71 % 1024,0 hPa 0,0 l/m 2 min 0 min 549 W/m 19,3 km/h (3 Bft) 97,87 %
06.10.2023 14:52 19,8 C 19,4 C 15,0 C 70 % 1024,0 hPa 0,0 l/m 2 min 0 min 593 W/m 12,9 km/h (3 Bft) 100,00 %
06.10.2023 14:54 19,8 C 19,4 C 15,0 C 70 % 1024,0 hPa 0,0 l/m 2 min 0 min 532 W/m 16,1 km/h (3 Bft) 100,00 %
06.10.2023 14:56 19,7 C 19,4 C 15,0 C 70 % 1024,0 hPa 0,0 l/m 2 min 0 min 516 W/m 16,1 km/h (3 Bft) 100,00 %
06.10.2023 14:58 19,7 C 19,4 C 15,0 C 70 % 1024,0 hPa 0,0 l/m 2 min 0 min 443 W/m 12,9 km/h (3 Bft) 100,00 %
06.10.2023 15:00 19,7 C 19,4 C 15,0 C 70 % 1024,0 hPa 0,0 l/m 2 min 0 min 404 W/m 16,1 km/h (3 Bft) 100,00 %
06.10.2023 15:02 19,7 C 18,9 C 15,0 C 70 % 1023,9 hPa 0,0 l/m 2 min 0 min 282 W/m 22,5 km/h (4 Bft) 100,00 %
06.10.2023 15:04 19,6 C 18,9 C 15,0 C 70 % 1024,0 hPa 0,0 l/m 2 min 0 min 247 W/m 16,1 km/h (3 Bft) 95,83 %
06.10.2023 15:08 19,4 C 18,9 C 15,0 C 70 % 1023,9 hPa 0,0 l/m 4 min 0 min 321 W/m 16,1 km/h (3 Bft) 96,59 %
06.10.2023 15:09 19,4 C 18,9 C 15,0 C 70 % 1023,9 hPa 0,0 l/m 1 min 0 min 429 W/m 6,4 km/h (2 Bft) 100,00 %
06.10.2023 15:12 19,4 C 18,9 C 15,0 C 71 % 1023,8 hPa 0,0 l/m 3 min 0 min 469 W/m 16,1 km/h (3 Bft) 97,14 %
06.10.2023 15:14 19,6 C 19,4 C 15,0 C 71 % 1023,9 hPa 0,0 l/m 2 min 0 min 505 W/m 12,9 km/h (3 Bft) 95,74 %
06.10.2023 15:16 19,6 C 19,4 C 15,0 C 71 % 1023,9 hPa 0,0 l/m 2 min 0 min 464 W/m 19,3 km/h (3 Bft) 97,73 %
06.10.2023 15:18 19,6 C 19,4 C 15,0 C 71 % 1023,9 hPa 0,0 l/m 2 min 0 min 379 W/m 16,1 km/h (3 Bft) 98,00 %
06.10.2023 15:20 19,7 C 19,4 C 15,0 C 71 % 1023,9 hPa 0,0 l/m 2 min 0 min 238 W/m 16,1 km/h (3 Bft) 97,87 %
06.10.2023 15:22 19,7 C 19,4 C 15,0 C 71 % 1023,9 hPa 0,0 l/m 0 min 0 min 213 W/m 19,3 km/h (3 Bft) 96,30 %
06.10.2023 15:24 19,7 C 19,4 C 15,0 C 71 % 1023,9 hPa 0,0 l/m 2 min 0 min 377 W/m 6,4 km/h (2 Bft) 97,87 %
06.10.2023 15:26 19,7 C 18,9 C 15,0 C 71 % 1023,8 hPa 0,0 l/m 2 min 0 min 253 W/m 16,1 km/h (3 Bft) 95,74 %
06.10.2023 15:28 19,7 C 18,9 C 15,0 C 71 % 1023,9 hPa 0,0 l/m 2 min 0 min 251 W/m 19,3 km/h (3 Bft) 97,87 %
06.10.2023 15:30 19,6 C 18,9 C 15,0 C 71 % 1023,8 hPa 0,0 l/m 2 min 0 min 293 W/m 22,5 km/h (4 Bft) 97,87 %
06.10.2023 15:32 19,6 C 18,9 C 15,0 C 71 % 1023,8 hPa 0,0 l/m 2 min 0 min 292 W/m 32,2 km/h (5 Bft) 97,87 %
06.10.2023 15:34 19,6 C 19,4 C 15,0 C 71 % 1023,8 hPa 0,0 l/m 2 min 0 min 391 W/m 12,9 km/h (3 Bft) 97,87 %
06.10.2023 15:36 19,6 C 19,4 C 15,0 C 71 % 1023,8 hPa 0,0 l/m 2 min 0 min 519 W/m 16,1 km/h (3 Bft) 95,74 %
06.10.2023 15:38 19,7 C 19,4 C 15,0 C 71 % 1023,8 hPa 0,0 l/m 2 min 0 min 471 W/m 25,7 km/h (4 Bft) 91,30 %
06.10.2023 15:40 19,7 C 19,4 C 15,0 C 71 % 1023,8 hPa 0,0 l/m 2 min 0 min 500 W/m 16,1 km/h (3 Bft) 95,74 %
06.10.2023 15:42 19,8 C 19,4 C 15,0 C 71 % 1023,7 hPa 0,0 l/m 2 min 0 min 488 W/m 12,9 km/h (3 Bft) 97,14 %
06.10.2023 15:44 19,8 C 19,4 C 15,0 C 72 % 1023,7 hPa 0,0 l/m 2 min 0 min 479 W/m 9,7 km/h (2 Bft) 97,87 %
06.10.2023 15:46 19,9 C 19,4 C 15,0 C 71 % 1023,7 hPa 0,0 l/m 2 min 0 min 471 W/m 12,9 km/h (3 Bft) 95,74 %
06.10.2023 15:48 19,9 C 19,4 C 15,0 C 71 % 1023,7 hPa 0,0 l/m 2 min 0 min 442 W/m 19,3 km/h (3 Bft) 100,00 %
06.10.2023 15:50 19,9 C 19,4 C 15,0 C 71 % 1023,7 hPa 0,0 l/m 2 min 0 min 333 W/m 16,1 km/h (3 Bft) 97,87 %
06.10.2023 15:52 19,9 C 19,4 C 15,0 C 71 % 1023,7 hPa 0,0 l/m 2 min 0 min 296 W/m 16,1 km/h (3 Bft) 97,87 %
06.10.2023 15:54 19,9 C 19,4 C 15,0 C 71 % 1023,7 hPa 0,0 l/m 2 min 0 min 305 W/m 12,9 km/h (3 Bft) 96,08 %
06.10.2023 15:56 19,9 C 19,4 C 15,0 C 70 % 1023,7 hPa 0,0 l/m 2 min 0 min 360 W/m 12,9 km/h (3 Bft) 95,74 %
06.10.2023 15:58 19,8 C 18,9 C 15,0 C 70 % 1023,7 hPa 0,0 l/m 2 min 0 min 381 W/m 16,1 km/h (3 Bft) 97,83 %
06.10.2023 16:00 19,8 C 19,4 C 15,0 C 71 % 1023,7 hPa 0,0 l/m 2 min 0 min 357 W/m 9,7 km/h (2 Bft) 97,87 %
06.10.2023 16:02 19,8 C 19,4 C 15,0 C 71 % 1023,7 hPa 0,0 l/m 2 min 0 min 316 W/m 9,7 km/h (2 Bft) 97,87 %
06.10.2023 16:04 19,8 C 18,9 C 15,0 C 71 % 1023,7 hPa 0,0 l/m 2 min 0 min 281 W/m 16,1 km/h (3 Bft) 97,73 %
06.10.2023 16:10 19,7 C 18,9 C 15,0 C 70 % 1023,6 hPa 0,0 l/m 5 min 0 min 237 W/m 16,1 km/h (3 Bft) 97,86 %
06.10.2023 16:12 19,6 C 18,9 C 15,0 C 70 % 1023,5 hPa 0,0 l/m 2 min 0 min 263 W/m 12,9 km/h (3 Bft) 97,87 %
06.10.2023 16:14 19,6 C 18,9 C 15,0 C 71 % 1023,6 hPa 0,0 l/m 2 min 0 min 292 W/m 12,9 km/h (3 Bft) 97,87 %
06.10.2023 16:16 19,6 C 18,9 C 15,0 C 71 % 1023,5 hPa 0,0 l/m 2 min 0 min 319 W/m 12,9 km/h (3 Bft) 97,87 %
06.10.2023 16:18 19,6 C 18,9 C 15,0 C 71 % 1023,5 hPa 0,0 l/m 2 min 0 min 351 W/m 29,0 km/h (5 Bft) 97,87 %
06.10.2023 16:20 19,6 C 18,9 C 15,0 C 71 % 1023,5 hPa 0,0 l/m 2 min 0 min 365 W/m 35,4 km/h (5 Bft) 95,74 %
06.10.2023 16:22 19,6 C 18,9 C 15,0 C 71 % 1023,5 hPa 0,0 l/m 2 min 0 min 358 W/m 22,5 km/h (4 Bft) 97,87 %
06.10.2023 16:24 19,6 C 18,9 C 15,0 C 70 % 1023,5 hPa 0,0 l/m 2 min 0 min 352 W/m 12,9 km/h (3 Bft) 95,74 %
06.10.2023 16:26 19,6 C 18,9 C 15,0 C 71 % 1023,5 hPa 0,0 l/m 2 min 0 min 357 W/m 12,9 km/h (3 Bft) 97,83 %
06.10.2023 16:28 19,6 C 18,9 C 15,0 C 71 % 1023,4 hPa 0,0 l/m 2 min 0 min 340 W/m 16,1 km/h (3 Bft) 97,87 %
06.10.2023 16:30 19,6 C 18,9 C 15,0 C 71 % 1023,5 hPa 0,0 l/m 2 min 0 min 313 W/m 12,9 km/h (3 Bft) 100,00 %
06.10.2023 16:32 19,6 C 18,9 C 15,0 C 71 % 1023,5 hPa 0,0 l/m 2 min 0 min 290 W/m 16,1 km/h (3 Bft) 100,00 %
06.10.2023 16:34 19,6 C 18,9 C 14,4 C 70 % 1023,6 hPa 0,0 l/m 2 min 0 min 237 W/m 19,3 km/h (3 Bft) 100,00 %
06.10.2023 16:36 19,5 C 18,9 C 14,4 C 71 % 1023,5 hPa 0,0 l/m 2 min 0 min 223 W/m 19,3 km/h (3 Bft) 97,87 %
06.10.2023 16:38 19,4 C 18,9 C 14,4 C 71 % 1023,5 hPa 0,0 l/m 2 min 0 min 243 W/m 19,3 km/h (3 Bft) 100,00 %
06.10.2023 16:40 19,4 C 18,9 C 14,4 C 71 % 1023,5 hPa 0,0 l/m 2 min 0 min 200 W/m 12,9 km/h (3 Bft) 100,00 %
06.10.2023 16:42 19,4 C 18,9 C 14,4 C 72 % 1023,5 hPa 0,0 l/m 2 min 0 min 270 W/m 12,9 km/h (3 Bft) 97,87 %
06.10.2023 16:44 19,4 C 18,9 C 14,4 C 72 % 1023,5 hPa 0,0 l/m 2 min 0 min 293 W/m 12,9 km/h (3 Bft) 97,87 %
06.10.2023 16:46 19,4 C 18,9 C 14,4 C 72 % 1023,6 hPa 0,0 l/m 2 min 0 min 283 W/m 16,1 km/h (3 Bft) 100,00 %
06.10.2023 16:48 19,4 C 18,9 C 14,4 C 72 % 1023,4 hPa 0,0 l/m 2 min 0 min 267 W/m 12,9 km/h (3 Bft) 100,00 %
06.10.2023 16:50 19,4 C 18,9 C 14,4 C 72 % 1023,4 hPa 0,0 l/m 2 min 0 min 237 W/m 12,9 km/h (3 Bft) 100,00 %
06.10.2023 16:52 19,4 C 18,9 C 14,4 C 72 % 1023,4 hPa 0,0 l/m 2 min 0 min 210 W/m 12,9 km/h (3 Bft) 97,83 %
06.10.2023 16:54 19,3 C 18,9 C 14,4 C 72 % 1023,4 hPa 0,0 l/m 2 min 0 min 173 W/m 19,3 km/h (3 Bft) 100,00 %
06.10.2023 16:56 19,3 C 18,9 C 14,4 C 72 % 1023,4 hPa 0,0 l/m 0 min 0 min 141 W/m 19,3 km/h (3 Bft) 97,92 %
06.10.2023 16:58 19,3 C 18,3 C 14,4 C 72 % 1023,4 hPa 0,0 l/m 2 min 0 min 184 W/m 12,9 km/h (3 Bft) 100,00 %
06.10.2023 17:00 19,3 C 18,9 C 14,4 C 73 % 1023,3 hPa 0,0 l/m 0 min 0 min 143 W/m 6,4 km/h (2 Bft) 100,00 %
06.10.2023 17:02 19,3 C 18,9 C 14,4 C 73 % 1023,4 hPa 0,0 l/m 2 min 0 min 237 W/m 19,3 km/h (3 Bft) 97,87 %
06.10.2023 17:04 19,3 C 18,9 C 14,4 C 73 % 1023,4 hPa 0,0 l/m 2 min 0 min 206 W/m 19,3 km/h (3 Bft) 97,67 %
06.10.2023 17:06 19,3 C 18,9 C 14,4 C 73 % 1023,4 hPa 0,0 l/m 2 min 0 min 179 W/m 9,7 km/h (2 Bft) 100,00 %
06.10.2023 17:08 19,3 C 18,9 C 14,4 C 74 % 1023,3 hPa 0,0 l/m 2 min 0 min 181 W/m 6,4 km/h (2 Bft) 100,00 %
06.10.2023 17:10 19,3 C 18,9 C 14,4 C 73 % 1023,3 hPa 0,0 l/m 2 min 0 min 181 W/m 19,3 km/h (3 Bft) 97,87 %
06.10.2023 17:12 19,3 C 18,9 C 14,4 C 73 % 1023,3 hPa 0,0 l/m 2 min 0 min 160 W/m 16,1 km/h (3 Bft) 97,87 %
06.10.2023 17:14 19,3 C 18,9 C 14,4 C 73 % 1023,3 hPa 0,0 l/m 2 min 0 min 160 W/m 12,9 km/h (3 Bft) 95,65 %
06.10.2023 17:16 19,3 C 18,9 C 14,4 C 73 % 1023,3 hPa 0,0 l/m 2 min 0 min 169 W/m 16,1 km/h (3 Bft) 97,87 %
06.10.2023 17:18 19,3 C 18,9 C 14,4 C 73 % 1023,3 hPa 0,0 l/m 2 min 0 min 157 W/m 6,4 km/h (2 Bft) 97,87 %
06.10.2023 17:20 19,3 C 18,9 C 14,4 C 74 % 1023,3 hPa 0,0 l/m 2 min 0 min 154 W/m 12,9 km/h (3 Bft) 97,87 %
06.10.2023 17:22 19,3 C 18,9 C 14,4 C 74 % 1023,3 hPa 0,0 l/m 2 min 0 min 161 W/m 12,9 km/h (3 Bft) 95,74 %
06.10.2023 17:24 19,3 C 18,9 C 14,4 C 74 % 1023,2 hPa 0,0 l/m 2 min 0 min 163 W/m 6,4 km/h (2 Bft) 97,87 %
06.10.2023 17:26 19,3 C 18,9 C 14,4 C 74 % 1023,2 hPa 0,0 l/m 2 min 0 min 151 W/m 6,4 km/h (2 Bft) 95,74 %
06.10.2023 17:28 19,3 C 18,9 C 14,4 C 74 % 1023,2 hPa 0,0 l/m 2 min 0 min 145 W/m 9,7 km/h (2 Bft) 95,74 %
06.10.2023 17:30 19,3 C 18,9 C 14,4 C 74 % 1023,2 hPa 0,0 l/m 2 min 0 min 162 W/m 9,7 km/h (2 Bft) 95,74 %
06.10.2023 17:32 19,3 C 18,9 C 14,4 C 74 % 1023,2 hPa 0,0 l/m 2 min 0 min 137 W/m 9,7 km/h (2 Bft) 95,65 %
06.10.2023 17:34 19,3 C 18,9 C 14,4 C 74 % 1023,2 hPa 0,0 l/m 2 min 0 min 123 W/m 6,4 km/h (2 Bft) 95,74 %
06.10.2023 17:36 19,3 C 18,9 C 14,4 C 74 % 1023,2 hPa 0,0 l/m 2 min 0 min 118 W/m 12,9 km/h (3 Bft) 93,62 %
06.10.2023 17:38 19,3 C 18,9 C 14,4 C 74 % 1023,2 hPa 0,0 l/m 2 min 0 min 149 W/m 6,4 km/h (2 Bft) 95,74 %
06.10.2023 17:40 19,3 C 18,9 C 14,4 C 74 % 1023,2 hPa 0,0 l/m 2 min 0 min 159 W/m 9,7 km/h (2 Bft) 95,74 %
06.10.2023 17:42 19,3 C 18,9 C 14,4 C 74 % 1023,3 hPa 0,0 l/m 2 min 0 min 149 W/m 16,1 km/h (3 Bft) 95,74 %
06.10.2023 17:44 19,3 C 18,9 C 14,4 C 74 % 1023,2 hPa 0,0 l/m 2 min 0 min 130 W/m 6,4 km/h (2 Bft) 93,62 %
06.10.2023 17:46 19,3 C 18,9 C 14,4 C 75 % 1023,1 hPa 0,0 l/m 2 min 0 min 97 W/m 9,7 km/h (2 Bft) 93,62 %
06.10.2023 17:48 19,3 C 18,9 C 14,4 C 75 % 1023,1 hPa 0,0 l/m 0 min 0 min 87 W/m 6,4 km/h (2 Bft) 95,74 %
06.10.2023 17:50 19,3 C 18,9 C 14,4 C 75 % 1023,2 hPa 0,0 l/m 0 min 0 min 83 W/m 16,1 km/h (3 Bft) 93,62 %
06.10.2023 17:52 19,3 C 18,9 C 14,4 C 75 % 1023,1 hPa 0,0 l/m 0 min 0 min 80 W/m 9,7 km/h (2 Bft) 91,49 %
06.10.2023 17:54 19,3 C 18,3 C 14,4 C 74 % 1023,2 hPa 0,0 l/m 0 min 0 min 77 W/m 12,9 km/h (3 Bft) 96,23 %
06.10.2023 17:56 19,2 C 18,3 C 14,4 C 75 % 1023,2 hPa 0,0 l/m 2 min 0 min 79 W/m 12,9 km/h (3 Bft) 93,62 %
06.10.2023 17:58 19,2 C 18,3 C 14,4 C 75 % 1023,1 hPa 0,0 l/m 2 min 0 min 77 W/m 12,9 km/h (3 Bft) 93,62 %
06.10.2023 18:00 19,2 C 18,3 C 14,4 C 75 % 1023,2 hPa 0,0 l/m 0 min 0 min 73 W/m 3,2 km/h (1 Bft) 95,74 %
06.10.2023 18:02 19,2 C 18,3 C 14,4 C 75 % 1023,2 hPa 0,0 l/m 0 min 0 min 70 W/m 6,4 km/h (2 Bft) 93,62 %
06.10.2023 18:04 19,2 C 18,3 C 14,4 C 75 % 1023,2 hPa 0,0 l/m 0 min 0 min 68 W/m 12,9 km/h (3 Bft) 95,74 %
06.10.2023 18:08 19,1 C 18,3 C 14,4 C 74 % 1023,1 hPa 0,0 l/m 4 min 0 min 64 W/m 25,7 km/h (4 Bft) 95,56 %
06.10.2023 18:10 19,1 C 18,3 C 13,9 C 74 % 1023,1 hPa 0,0 l/m 2 min 0 min 61 W/m 12,9 km/h (3 Bft) 95,74 %
06.10.2023 18:12 19,0 C 18,3 C 13,9 C 74 % 1023,1 hPa 0,0 l/m 0 min 0 min 58 W/m 16,1 km/h (3 Bft) 97,87 %
06.10.2023 18:16 18,9 C 18,3 C 13,9 C 74 % 1023,1 hPa 0,0 l/m 4 min 0 min 53 W/m 6,4 km/h (2 Bft) 97,87 %
06.10.2023 18:18 18,9 C 17,8 C 13,9 C 74 % 1023,1 hPa 0,0 l/m 0 min 0 min 48 W/m 0,0 km/h (0 Bft) 95,74 %
06.10.2023 18:20 18,9 C 17,8 C 13,9 C 74 % 1023,0 hPa 0,0 l/m 0 min 0 min 44 W/m 9,7 km/h (2 Bft) 97,83 %
06.10.2023 18:22 18,8 C 17,8 C 13,9 C 74 % 1023,1 hPa 0,0 l/m 0 min 0 min 41 W/m 12,9 km/h (3 Bft) 97,87 %
06.10.2023 18:24 18,8 C 17,8 C 13,9 C 74 % 1023,1 hPa 0,0 l/m 0 min 0 min 39 W/m 6,4 km/h (2 Bft) 97,87 %
06.10.2023 18:26 18,7 C 17,8 C 13,9 C 74 % 1023,2 hPa 0,0 l/m 0 min 0 min 36 W/m 16,1 km/h (3 Bft) 97,87 %
06.10.2023 18:28 18,7 C 17,8 C 13,9 C 74 % 1023,1 hPa 0,0 l/m 0 min 0 min 33 W/m 12,9 km/h (3 Bft) 97,87 %
06.10.2023 18:30 18,7 C 17,8 C 13,9 C 75 % 1023,1 hPa 0,0 l/m 0 min 0 min 32 W/m 9,7 km/h (2 Bft) 97,87 %
06.10.2023 18:32 18,6 C 17,8 C 13,9 C 75 % 1023,1 hPa 0,0 l/m 0 min 0 min 32 W/m 12,9 km/h (3 Bft) 97,87 %
06.10.2023 18:34 18,6 C 17,8 C 13,3 C 75 % 1023,1 hPa 0,0 l/m 2 min 0 min 30 W/m 12,9 km/h (3 Bft) 97,87 %
06.10.2023 18:36 18,6 C 17,2 C 13,3 C 75 % 1023,1 hPa 0,0 l/m 2 min 0 min 27 W/m 16,1 km/h (3 Bft) 100,00 %
06.10.2023 18:38 18,5 C 17,2 C 13,3 C 75 % 1023,1 hPa 0,0 l/m 2 min 0 min 25 W/m 12,9 km/h (3 Bft) 100,00 %
06.10.2023 18:40 18,4 C 17,2 C 13,3 C 75 % 1023,1 hPa 0,0 l/m 2 min 0 min 23 W/m 16,1 km/h (3 Bft) 100,00 %
06.10.2023 18:42 18,4 C 17,2 C 13,3 C 75 % 1023,2 hPa 0,0 l/m 2 min 0 min 20 W/m 22,5 km/h (4 Bft) 100,00 %
06.10.2023 18:44 18,4 C 17,2 C 13,3 C 75 % 1023,1 hPa 0,0 l/m 0 min 0 min 18 W/m 12,9 km/h (3 Bft) 100,00 %
06.10.2023 18:46 18,4 C 17,2 C 13,3 C 75 % 1023,2 hPa 0,0 l/m 0 min 0 min 16 W/m 12,9 km/h (3 Bft) 100,00 %
06.10.2023 18:48 18,3 C 17,2 C 13,3 C 75 % 1023,2 hPa 0,0 l/m 0 min 0 min 13 W/m 6,4 km/h (2 Bft) 100,00 %
06.10.2023 18:50 18,3 C 17,2 C 13,3 C 76 % 1023,1 hPa 0,0 l/m 0 min 0 min 11 W/m 16,1 km/h (3 Bft) 100,00 %
06.10.2023 18:52 18,2 C 17,2 C 13,3 C 76 % 1023,2 hPa 0,0 l/m 0 min 0 min 9 W/m 6,4 km/h (2 Bft) 98,00 %
06.10.2023 18:54 18,2 C 17,2 C 13,3 C 76 % 1023,2 hPa 0,0 l/m 0 min 0 min 7 W/m 12,9 km/h (3 Bft) 100,00 %
06.10.2023 18:56 18,2 C 17,2 C 13,3 C 76 % 1023,2 hPa 0,0 l/m 0 min 0 min 5 W/m 9,7 km/h (2 Bft) 100,00 %
06.10.2023 18:58 18,1 C 16,7 C 13,3 C 76 % 1023,2 hPa 0,0 l/m 0 min 0 min 5 W/m 6,4 km/h (2 Bft) 100,00 %
06.10.2023 19:00 18,1 C 16,7 C 13,3 C 76 % 1023,2 hPa 0,0 l/m 0 min 0 min 0 W/m 6,4 km/h (2 Bft) 100,00 %
06.10.2023 19:02 18,0 C 16,7 C 12,8 C 77 % 1023,2 hPa 0,0 l/m 0 min 0 min 0 W/m 12,9 km/h (3 Bft) 100,00 %
06.10.2023 19:04 17,9 C 16,7 C 12,8 C 77 % 1023,2 hPa 0,0 l/m 0 min 0 min 0 W/m 9,7 km/h (2 Bft) 100,00 %
06.10.2023 19:06 17,9 C 16,7 C 12,8 C 77 % 1023,2 hPa 0,0 l/m 0 min 0 min 0 W/m 6,4 km/h (2 Bft) 100,00 %
06.10.2023 19:08 17,9 C 16,7 C 12,8 C 77 % 1023,2 hPa 0,0 l/m 0 min 0 min 0 W/m 6,4 km/h (2 Bft) 100,00 %
06.10.2023 19:10 17,8 C 16,7 C 12,8 C 77 % 1023,2 hPa 0,0 l/m 0 min 0 min 0 W/m 9,7 km/h (2 Bft) 100,00 %
06.10.2023 19:12 17,8 C 16,7 C 12,8 C 77 % 1023,2 hPa 0,0 l/m 0 min 0 min 0 W/m 6,4 km/h (2 Bft) 100,00 %
06.10.2023 19:14 17,7 C 16,7 C 12,8 C 77 % 1023,2 hPa 0,0 l/m 0 min 0 min 0 W/m 6,4 km/h (2 Bft) 100,00 %
06.10.2023 19:16 17,7 C 16,7 C 12,8 C 78 % 1023,2 hPa 0,0 l/m 0 min 0 min 0 W/m 6,4 km/h (2 Bft) 97,87 %
06.10.2023 19:18 17,6 C 16,7 C 12,8 C 78 % 1023,3 hPa 0,0 l/m 0 min 0 min 0 W/m 6,4 km/h (2 Bft) 100,00 %
06.10.2023 19:20 17,6 C 16,7 C 12,8 C 78 % 1023,2 hPa 0,0 l/m 0 min 0 min 0 W/m 6,4 km/h (2 Bft) 100,00 %
06.10.2023 19:22 17,6 C 16,7 C 12,8 C 78 % 1023,2 hPa 0,0 l/m 0 min 0 min 0 W/m 6,4 km/h (2 Bft) 100,00 %
06.10.2023 19:24 17,5 C 16,7 C 12,8 C 78 % 1023,2 hPa 0,0 l/m 0 min 0 min 0 W/m 6,4 km/h (2 Bft) 100,00 %
06.10.2023 19:26 17,5 C 16,1 C 12,8 C 78 % 1023,2 hPa 0,0 l/m 0 min 0 min 0 W/m 16,1 km/h (3 Bft) 100,00 %
06.10.2023 19:28 17,4 C 16,1 C 12,8 C 78 % 1023,2 hPa 0,0 l/m 0 min 0 min 0 W/m 6,4 km/h (2 Bft) 100,00 %
06.10.2023 19:30 17,4 C 16,1 C 12,8 C 78 % 1023,2 hPa 0,0 l/m 0 min 0 min 0 W/m 6,4 km/h (2 Bft) 100,00 %
06.10.2023 19:32 17,4 C 16,1 C 12,8 C 79 % 1023,1 hPa 0,0 l/m 0 min 0 min 0 W/m 6,4 km/h (2 Bft) 100,00 %
06.10.2023 19:34 17,3 C 16,1 C 12,2 C 79 % 1023,1 hPa 0,0 l/m 0 min 0 min 0 W/m 6,4 km/h (2 Bft) 100,00 %
06.10.2023 19:36 17,3 C 16,1 C 12,2 C 79 % 1023,1 hPa 0,0 l/m 0 min 0 min 0 W/m 3,2 km/h (1 Bft) 100,00 %
06.10.2023 19:38 17,3 C 16,1 C 12,2 C 79 % 1023,1 hPa 0,0 l/m 0 min 0 min 0 W/m 9,7 km/h (2 Bft) 97,87 %
06.10.2023 19:40 17,3 C 16,1 C 12,2 C 79 % 1023,1 hPa 0,0 l/m 0 min 0 min 0 W/m 6,4 km/h (2 Bft) 100,00 %
06.10.2023 19:42 17,2 C 16,1 C 12,2 C 79 % 1023,1 hPa 0,0 l/m 0 min 0 min 0 W/m 9,7 km/h (2 Bft) 100,00 %
06.10.2023 19:44 17,2 C 16,1 C 12,2 C 79 % 1023,1 hPa 0,0 l/m 0 min 0 min 0 W/m 12,9 km/h (3 Bft) 100,00 %
06.10.2023 19:46 17,2 C 16,1 C 12,2 C 79 % 1023,1 hPa 0,0 l/m 0 min 0 min 0 W/m 12,9 km/h (3 Bft) 100,00 %
06.10.2023 19:48 17,2 C 16,1 C 12,2 C 79 % 1023,1 hPa 0,0 l/m 0 min 0 min 0 W/m 3,2 km/h (1 Bft) 97,87 %
06.10.2023 19:50 17,1 C 16,1 C 12,2 C 79 % 1023,2 hPa 0,0 l/m 0 min 0 min 0 W/m 22,5 km/h (4 Bft) 97,87 %
06.10.2023 19:52 17,1 C 16,1 C 12,2 C 79 % 1023,2 hPa 0,0 l/m 0 min 0 min 0 W/m 6,4 km/h (2 Bft) 100,00 %
06.10.2023 19:54 17,1 C 16,1 C 12,2 C 80 % 1023,2 hPa 0,0 l/m 0 min 0 min 0 W/m 6,4 km/h (2 Bft) 94,44 %
06.10.2023 19:56 17,1 C 16,1 C 12,2 C 80 % 1023,2 hPa 0,0 l/m 0 min 0 min 0 W/m 3,2 km/h (1 Bft) 95,65 %
06.10.2023 19:58 17,1 C 16,1 C 12,2 C 80 % 1023,2 hPa 0,0 l/m 0 min 0 min 0 W/m 6,4 km/h (2 Bft) 93,62 %
06.10.2023 20:00 17,0 C 16,1 C 12,2 C 80 % 1023,2 hPa 0,0 l/m 0 min 0 min 0 W/m 6,4 km/h (2 Bft) 93,62 %
06.10.2023 20:02 17,0 C 16,1 C 12,2 C 80 % 1023,2 hPa 0,0 l/m 0 min 0 min 0 W/m 9,7 km/h (2 Bft) 97,87 %
06.10.2023 20:04 17,0 C 16,1 C 12,2 C 80 % 1023,2 hPa 0,0 l/m 0 min 0 min 0 W/m 6,4 km/h (2 Bft) 94,34 %
06.10.2023 20:06 16,9 C 16,1 C 12,2 C 80 % 1023,2 hPa 0,0 l/m 0 min 0 min 0 W/m 3,2 km/h (1 Bft) 91,49 %
06.10.2023 20:08 16,9 C 16,1 C 12,2 C 80 % 1023,2 hPa 0,0 l/m 0 min 0 min 0 W/m 6,4 km/h (2 Bft) 95,74 %
06.10.2023 20:10 16,9 C 15,6 C 12,2 C 80 % 1023,2 hPa 0,0 l/m 0 min 0 min 0 W/m 6,4 km/h (2 Bft) 93,62 %
06.10.2023 20:12 16,9 C 16,1 C 12,2 C 80 % 1023,2 hPa 0,0 l/m 0 min 0 min 0 W/m 6,4 km/h (2 Bft) 93,62 %
06.10.2023 20:14 16,9 C 15,6 C 12,2 C 80 % 1023,2 hPa 0,0 l/m 0 min 0 min 0 W/m 6,4 km/h (2 Bft) 93,62 %
06.10.2023 20:16 16,8 C 15,6 C 12,2 C 80 % 1023,2 hPa 0,0 l/m 0 min 0 min 0 W/m 6,4 km/h (2 Bft) 93,62 %
06.10.2023 20:18 16,8 C 15,6 C 12,2 C 80 % 1023,2 hPa 0,0 l/m 0 min 0 min 0 W/m 12,9 km/h (3 Bft) 91,49 %
06.10.2023 20:20 16,8 C 15,6 C 12,2 C 81 % 1023,2 hPa 0,0 l/m 0 min 0 min 0 W/m 6,4 km/h (2 Bft) 93,62 %
06.10.2023 20:22 16,8 C 15,6 C 12,2 C 81 % 1023,2 hPa 0,0 l/m 0 min 0 min 0 W/m 6,4 km/h (2 Bft) 93,62 %
06.10.2023 20:24 16,8 C 15,6 C 12,2 C 81 % 1023,1 hPa 0,0 l/m 0 min 0 min 0 W/m 6,4 km/h (2 Bft) 93,62 %
06.10.2023 20:26 16,8 C 15,6 C 12,2 C 81 % 1023,2 hPa 0,0 l/m 0 min 0 min 0 W/m 3,2 km/h (1 Bft) 93,48 %
06.10.2023 20:28 16,7 C 15,6 C 12,2 C 81 % 1023,2 hPa 0,0 l/m 0 min 0 min 0 W/m 6,4 km/h (2 Bft) 95,74 %
06.10.2023 20:30 16,7 C 15,6 C 12,2 C 81 % 1023,2 hPa 0,0 l/m 0 min 0 min 0 W/m 12,9 km/h (3 Bft) 95,74 %
06.10.2023 20:32 16,7 C 15,6 C 12,2 C 81 % 1023,2 hPa 0,0 l/m 0 min 0 min 0 W/m 3,2 km/h (1 Bft) 95,74 %
06.10.2023 20:34 16,7 C 15,6 C 11,7 C 81 % 1023,2 hPa 0,0 l/m 0 min 0 min 0 W/m 3,2 km/h (1 Bft) 93,62 %
06.10.2023 20:36 16,7 C 15,6 C 11,7 C 81 % 1023,2 hPa 0,0 l/m 0 min 0 min 0 W/m 3,2 km/h (1 Bft) 95,74 %
06.10.2023 20:38 16,6 C 15,6 C 11,7 C 81 % 1023,3 hPa 0,0 l/m 0 min 0 min 0 W/m 3,2 km/h (1 Bft) 95,74 %
06.10.2023 20:40 16,6 C 15,6 C 11,7 C 81 % 1023,2 hPa 0,0 l/m 0 min 0 min 0 W/m 6,4 km/h (2 Bft) 97,87 %
06.10.2023 20:42 16,6 C 15,6 C 11,7 C 81 % 1023,2 hPa 0,0 l/m 0 min 0 min 0 W/m 3,2 km/h (1 Bft) 95,74 %
06.10.2023 20:44 16,6 C 15,6 C 11,7 C 82 % 1023,2 hPa 0,0 l/m 0 min 0 min 0 W/m 6,4 km/h (2 Bft) 97,87 %
06.10.2023 20:46 16,5 C 15,6 C 11,7 C 82 % 1023,2 hPa 0,0 l/m 0 min 0 min 0 W/m 3,2 km/h (1 Bft) 97,87 %
06.10.2023 20:48 16,5 C 15,6 C 11,7 C 82 % 1023,2 hPa 0,0 l/m 0 min 0 min 0 W/m 6,4 km/h (2 Bft) 95,65 %
06.10.2023 20:50 16,4 C 15,6 C 11,7 C 82 % 1023,2 hPa 0,0 l/m 0 min 0 min 0 W/m 3,2 km/h (1 Bft) 95,74 %
06.10.2023 20:52 16,4 C 15,6 C 11,7 C 82 % 1023,2 hPa 0,0 l/m 0 min 0 min 0 W/m 6,4 km/h (2 Bft) 95,74 %
06.10.2023 20:54 16,4 C 15,6 C 11,7 C 82 % 1023,3 hPa 0,0 l/m 0 min 0 min 0 W/m 6,4 km/h (2 Bft) 100,00 %
06.10.2023 20:56 16,4 C 15,6 C 11,7 C 82 % 1023,2 hPa 0,0 l/m 0 min 0 min 0 W/m 9,7 km/h (2 Bft) 95,74 %
06.10.2023 20:58 16,4 C 15,6 C 11,7 C 82 % 1023,3 hPa 0,0 l/m 0 min 0 min 0 W/m 6,4 km/h (2 Bft) 100,00 %
06.10.2023 21:00 16,4 C 15,6 C 11,7 C 82 % 1023,3 hPa 0,0 l/m 0 min 0 min 0 W/m 9,7 km/h (2 Bft) 95,74 %
06.10.2023 21:02 16,3 C 15,6 C 11,7 C 82 % 1023,3 hPa 0,0 l/m 0 min 0 min 0 W/m 6,4 km/h (2 Bft) 100,00 %
06.10.2023 21:04 16,3 C 15,6 C 11,7 C 83 % 1023,3 hPa 0,0 l/m 0 min 0 min 0 W/m 6,4 km/h (2 Bft) 100,00 %
06.10.2023 21:06 16,3 C 15,0 C 11,7 C 82 % 1023,3 hPa 0,0 l/m 0 min 0 min 0 W/m 9,7 km/h (2 Bft) 98,04 %
06.10.2023 21:08 16,3 C 15,0 C 11,7 C 83 % 1023,3 hPa 0,0 l/m 0 min 0 min 0 W/m 6,4 km/h (2 Bft) 100,00 %
06.10.2023 21:10 16,3 C 15,0 C 11,7 C 83 % 1023,2 hPa 0,0 l/m 0 min 0 min 0 W/m 6,4 km/h (2 Bft) 97,87 %
06.10.2023 21:12 16,3 C 15,0 C 11,7 C 83 % 1023,2 hPa 0,0 l/m 0 min 0 min 0 W/m 12,9 km/h (3 Bft) 97,87 %
06.10.2023 21:14 16,3 C 15,0 C 11,7 C 83 % 1023,2 hPa 0,0 l/m 0 min 0 min 0 W/m 12,9 km/h (3 Bft) 100,00 %
06.10.2023 21:16 16,2 C 15,0 C 11,7 C 83 % 1023,2 hPa 0,0 l/m 0 min 0 min 0 W/m 16,1 km/h (3 Bft) 100,00 %
06.10.2023 21:18 16,2 C 15,0 C 11,7 C 83 % 1023,2 hPa 0,0 l/m 0 min 0 min 0 W/m 6,4 km/h (2 Bft) 97,87 %
06.10.2023 21:20 16,2 C 15,0 C 11,7 C 83 % 1023,2 hPa 0,0 l/m 0 min 0 min 0 W/m 12,9 km/h (3 Bft) 100,00 %
06.10.2023 21:22 16,2 C 15,0 C 11,7 C 83 % 1023,2 hPa 0,0 l/m 0 min 0 min 0 W/m 12,9 km/h (3 Bft) 97,87 %
06.10.2023 21:24 16,2 C 15,0 C 11,7 C 83 % 1023,2 hPa 0,0 l/m 0 min 0 min 0 W/m 16,1 km/h (3 Bft) 100,00 %
06.10.2023 21:26 16,2 C 15,6 C 11,7 C 83 % 1023,1 hPa 0,0 l/m 0 min 0 min 0 W/m 9,7 km/h (2 Bft) 100,00 %
06.10.2023 21:28 16,2 C 15,6 C 11,7 C 83 % 1023,2 hPa 0,0 l/m 0 min 0 min 0 W/m 6,4 km/h (2 Bft) 100,00 %
06.10.2023 21:30 16,2 C 15,6 C 11,7 C 83 % 1023,1 hPa 0,0 l/m 0 min 0 min 0 W/m 12,9 km/h (3 Bft) 100,00 %
06.10.2023 21:32 16,2 C 15,6 C 11,7 C 84 % 1023,2 hPa 0,0 l/m 0 min 0 min 0 W/m 12,9 km/h (3 Bft) 100,00 %
06.10.2023 21:34 16,2 C 15,6 C 11,7 C 83 % 1023,2 hPa 0,0 l/m 0 min 0 min 0 W/m 12,9 km/h (3 Bft) 100,00 %
06.10.2023 21:36 16,2 C 15,6 C 11,7 C 83 % 1023,2 hPa 0,0 l/m 0 min 0 min 0 W/m 12,9 km/h (3 Bft) 97,87 %
06.10.2023 21:38 16,2 C 15,6 C 11,7 C 83 % 1023,1 hPa 0,0 l/m 0 min 0 min 0 W/m 6,4 km/h (2 Bft) 97,87 %
06.10.2023 21:40 16,2 C 15,6 C 11,7 C 83 % 1023,2 hPa 0,0 l/m 0 min 0 min 0 W/m 6,4 km/h (2 Bft) 97,87 %
06.10.2023 21:42 16,2 C 15,6 C 11,7 C 83 % 1023,1 hPa 0,0 l/m 0 min 0 min 0 W/m 6,4 km/h (2 Bft) 100,00 %
06.10.2023 21:44 16,2 C 15,6 C 11,7 C 83 % 1023,2 hPa 0,0 l/m 0 min 0 min 0 W/m 12,9 km/h (3 Bft) 100,00 %
06.10.2023 21:46 16,2 C 15,6 C 11,7 C 83 % 1023,1 hPa 0,0 l/m 0 min 0 min 0 W/m 6,4 km/h (2 Bft) 100,00 %
06.10.2023 21:48 16,2 C 15,6 C 11,7 C 83 % 1023,1 hPa 0,0 l/m 0 min 0 min 0 W/m 12,9 km/h (3 Bft) 97,87 %
06.10.2023 21:50 16,2 C 15,6 C 11,7 C 83 % 1023,1 hPa 0,0 l/m 0 min 0 min 0 W/m 6,4 km/h (2 Bft) 95,74 %
06.10.2023 21:52 16,2 C 15,6 C 11,7 C 83 % 1023,1 hPa 0,0 l/m 0 min 0 min 0 W/m 6,4 km/h (2 Bft) 97,87 %
06.10.2023 21:54 16,2 C 15,6 C 11,7 C 83 % 1023,0 hPa 0,0 l/m 0 min 0 min 0 W/m 6,4 km/h (2 Bft) 97,87 %
06.10.2023 21:56 16,2 C 15,6 C 11,7 C 84 % 1023,0 hPa 0,0 l/m 0 min 0 min 0 W/m 9,7 km/h (2 Bft) 97,87 %
06.10.2023 21:58 16,2 C 15,6 C 11,7 C 83 % 1023,0 hPa 0,0 l/m 0 min 0 min 0 W/m 9,7 km/h (2 Bft) 95,74 %
06.10.2023 22:00 16,2 C 15,6 C 11,7 C 84 % 1023,0 hPa 0,0 l/m 0 min 0 min 0 W/m 12,9 km/h (3 Bft) 97,14 %
06.10.2023 22:02 16,2 C 15,6 C 11,7 C 84 % 1022,9 hPa 0,0 l/m 0 min 0 min 0 W/m 6,4 km/h (2 Bft) 97,87 %
06.10.2023 22:04 16,1 C 15,6 C 11,7 C 84 % 1023,0 hPa 0,0 l/m 0 min 0 min 0 W/m 6,4 km/h (2 Bft) 96,23 %
06.10.2023 22:10 16,1 C 15,0 C 11,7 C 84 % 1023,0 hPa 0,0 l/m 0 min 0 min 0 W/m 6,4 km/h (2 Bft) 96,45 %
06.10.2023 22:12 16,1 C 15,0 C 11,7 C 84 % 1023,0 hPa 0,0 l/m 0 min 0 min 0 W/m 22,5 km/h (4 Bft) 95,65 %
06.10.2023 22:14 16,1 C 15,0 C 11,7 C 84 % 1023,0 hPa 0,0 l/m 0 min 0 min 0 W/m 3,2 km/h (1 Bft) 97,87 %
06.10.2023 22:16 16,1 C 15,0 C 11,1 C 84 % 1022,9 hPa 0,0 l/m 0 min 0 min 0 W/m 6,4 km/h (2 Bft) 95,74 %
06.10.2023 22:18 16,1 C 15,0 C 11,7 C 84 % 1023,0 hPa 0,0 l/m 0 min 0 min 0 W/m 16,1 km/h (3 Bft) 97,87 %
06.10.2023 22:20 16,1 C 15,0 C 11,7 C 84 % 1023,0 hPa 0,0 l/m 0 min 0 min 0 W/m 12,9 km/h (3 Bft) 100,00 %
06.10.2023 22:22 16,1 C 15,0 C 11,7 C 84 % 1023,0 hPa 0,0 l/m 0 min 0 min 0 W/m 6,4 km/h (2 Bft) 97,87 %
06.10.2023 22:24 16,0 C 15,0 C 11,1 C 84 % 1023,0 hPa 0,0 l/m 0 min 0 min 0 W/m 12,9 km/h (3 Bft) 97,87 %
06.10.2023 22:26 16,0 C 15,0 C 11,7 C 84 % 1023,0 hPa 0,0 l/m 0 min 0 min 0 W/m 16,1 km/h (3 Bft) 97,87 %
06.10.2023 22:28 16,0 C 15,0 C 11,1 C 84 % 1023,0 hPa 0,0 l/m 0 min 0 min 0 W/m 6,4 km/h (2 Bft) 97,87 %
06.10.2023 22:30 15,9 C 15,0 C 11,1 C 84 % 1023,0 hPa 0,0 l/m 0 min 0 min 0 W/m 6,4 km/h (2 Bft) 97,87 %
06.10.2023 22:32 15,9 C 15,0 C 11,1 C 84 % 1023,0 hPa 0,0 l/m 0 min 0 min 0 W/m 6,4 km/h (2 Bft) 97,87 %
06.10.2023 22:34 15,9 C 15,0 C 11,1 C 84 % 1023,0 hPa 0,0 l/m 0 min 0 min 0 W/m 6,4 km/h (2 Bft) 97,87 %
06.10.2023 22:36 15,9 C 15,0 C 11,1 C 84 % 1023,1 hPa 0,0 l/m 0 min 0 min 0 W/m 6,4 km/h (2 Bft) 95,65 %
06.10.2023 22:38 15,9 C 15,0 C 11,1 C 84 % 1023,0 hPa 0,0 l/m 0 min 0 min 0 W/m 12,9 km/h (3 Bft) 95,74 %
06.10.2023 22:40 15,8 C 15,0 C 11,1 C 84 % 1023,0 hPa 0,0 l/m 0 min 0 min 0 W/m 6,4 km/h (2 Bft) 97,87 %
06.10.2023 22:42 15,8 C 15,0 C 11,1 C 84 % 1023,0 hPa 0,0 l/m 0 min 0 min 0 W/m 9,7 km/h (2 Bft) 97,87 %
06.10.2023 22:44 15,8 C 15,0 C 11,1 C 84 % 1023,0 hPa 0,0 l/m 0 min 0 min 0 W/m 9,7 km/h (2 Bft) 97,87 %
06.10.2023 22:46 15,8 C 15,0 C 11,1 C 84 % 1023,0 hPa 0,0 l/m 0 min 0 min 0 W/m 12,9 km/h (3 Bft) 97,87 %
06.10.2023 22:48 15,8 C 15,0 C 11,1 C 84 % 1023,0 hPa 0,0 l/m 0 min 0 min 0 W/m 6,4 km/h (2 Bft) 95,74 %
06.10.2023 22:50 15,8 C 15,0 C 11,1 C 84 % 1023,1 hPa 0,0 l/m 0 min 0 min 0 W/m 6,4 km/h (2 Bft) 97,87 %
06.10.2023 22:52 15,7 C 15,0 C 11,1 C 84 % 1023,1 hPa 0,0 l/m 0 min 0 min 0 W/m 6,4 km/h (2 Bft) 93,62 %
06.10.2023 22:54 15,7 C 15,0 C 11,1 C 84 % 1023,1 hPa 0,0 l/m 0 min 0 min 0 W/m 12,9 km/h (3 Bft) 97,87 %
06.10.2023 22:56 15,7 C 15,0 C 11,1 C 84 % 1023,2 hPa 0,0 l/m 0 min 0 min 0 W/m 16,1 km/h (3 Bft) 97,87 %
06.10.2023 22:58 15,7 C 15,0 C 11,1 C 84 % 1023,2 hPa 0,0 l/m 0 min 0 min 0 W/m 6,4 km/h (2 Bft) 95,12 %
06.10.2023 23:00 15,7 C 15,0 C 11,1 C 84 % 1023,2 hPa 0,0 l/m 0 min 0 min 0 W/m 9,7 km/h (2 Bft) 97,92 %
06.10.2023 23:02 15,7 C 14,4 C 11,1 C 84 % 1023,2 hPa 0,0 l/m 0 min 0 min 0 W/m 6,4 km/h (2 Bft) 97,87 %
06.10.2023 23:04 15,6 C 15,0 C 11,1 C 85 % 1023,2 hPa 0,0 l/m 0 min 0 min 0 W/m 12,9 km/h (3 Bft) 97,83 %
06.10.2023 23:06 15,6 C 14,4 C 11,1 C 84 % 1023,2 hPa 0,0 l/m 0 min 0 min 0 W/m 6,4 km/h (2 Bft) 97,87 %
06.10.2023 23:08 15,6 C 14,4 C 11,1 C 85 % 1023,3 hPa 0,0 l/m 0 min 0 min 0 W/m 6,4 km/h (2 Bft) 97,87 %
06.10.2023 23:10 15,6 C 14,4 C 11,1 C 85 % 1023,3 hPa 0,0 l/m 0 min 0 min 0 W/m 6,4 km/h (2 Bft) 97,87 %
06.10.2023 23:12 15,6 C 14,4 C 11,1 C 85 % 1023,3 hPa 0,0 l/m 0 min 0 min 0 W/m 6,4 km/h (2 Bft) 95,74 %
06.10.2023 23:14 15,6 C 14,4 C 11,1 C 85 % 1023,2 hPa 0,0 l/m 0 min 0 min 0 W/m 9,7 km/h (2 Bft) 95,74 %
06.10.2023 23:16 15,6 C 14,4 C 11,1 C 85 % 1023,3 hPa 0,0 l/m 0 min 0 min 0 W/m 6,4 km/h (2 Bft) 97,87 %
06.10.2023 23:18 15,6 C 14,4 C 11,1 C 85 % 1023,3 hPa 0,0 l/m 0 min 0 min 0 W/m 6,4 km/h (2 Bft) 97,87 %
06.10.2023 23:20 15,5 C 14,4 C 11,1 C 85 % 1023,3 hPa 0,0 l/m 0 min 0 min 0 W/m 9,7 km/h (2 Bft) 97,87 %
06.10.2023 23:22 15,5 C 14,4 C 11,1 C 85 % 1023,3 hPa 0,0 l/m 0 min 0 min 0 W/m 6,4 km/h (2 Bft) 97,87 %
06.10.2023 23:24 15,4 C 14,4 C 11,1 C 85 % 1023,2 hPa 0,0 l/m 0 min 0 min 0 W/m 9,7 km/h (2 Bft) 97,83 %
06.10.2023 23:26 15,4 C 14,4 C 11,1 C 85 % 1023,2 hPa 0,0 l/m 0 min 0 min 0 W/m 3,2 km/h (1 Bft) 97,87 %
06.10.2023 23:28 15,4 C 14,4 C 11,1 C 85 % 1023,2 hPa 0,0 l/m 0 min 0 min 0 W/m 16,1 km/h (3 Bft) 95,74 %
06.10.2023 23:30 15,4 C 14,4 C 11,1 C 85 % 1023,2 hPa 0,0 l/m 0 min 0 min 0 W/m 6,4 km/h (2 Bft) 95,74 %
06.10.2023 23:32 15,4 C 14,4 C 11,1 C 85 % 1023,3 hPa 0,0 l/m 0 min 0 min 0 W/m 6,4 km/h (2 Bft) 97,96 %
06.10.2023 23:34 15,4 C 14,4 C 10,6 C 85 % 1023,2 hPa 0,0 l/m 0 min 0 min 0 W/m 12,9 km/h (3 Bft) 97,87 %
06.10.2023 23:36 15,3 C 14,4 C 10,6 C 85 % 1023,2 hPa 0,0 l/m 0 min 0 min 0 W/m 6,4 km/h (2 Bft) 95,65 %
06.10.2023 23:38 15,3 C 14,4 C 10,6 C 85 % 1023,2 hPa 0,0 l/m 0 min 0 min 0 W/m 3,2 km/h (1 Bft) 97,87 %
06.10.2023 23:40 15,3 C 14,4 C 10,6 C 85 % 1023,3 hPa 0,0 l/m 0 min 0 min 0 W/m 3,2 km/h (1 Bft) 93,62 %
06.10.2023 23:42 15,3 C 14,4 C 10,6 C 85 % 1023,3 hPa 0,0 l/m 0 min 0 min 0 W/m 6,4 km/h (2 Bft) 95,74 %
06.10.2023 23:44 15,3 C 14,4 C 10,6 C 85 % 1023,3 hPa 0,0 l/m 0 min 0 min 0 W/m 12,9 km/h (3 Bft) 93,62 %
06.10.2023 23:46 15,3 C 14,4 C 10,6 C 85 % 1023,2 hPa 0,0 l/m 0 min 0 min 0 W/m 9,7 km/h (2 Bft) 89,36 %
06.10.2023 23:48 15,3 C 14,4 C 10,6 C 85 % 1023,2 hPa 0,0 l/m 0 min 0 min 0 W/m 6,4 km/h (2 Bft) 97,87 %
06.10.2023 23:50 15,3 C 14,4 C 10,6 C 86 % 1023,2 hPa 0,0 l/m 0 min 0 min 0 W/m 12,9 km/h (3 Bft) 95,74 %
06.10.2023 23:52 15,2 C 14,4 C 10,6 C 86 % 1023,1 hPa 0,0 l/m 0 min 0 min 0 W/m 6,4 km/h (2 Bft) 95,74 %
06.10.2023 23:54 15,2 C 14,4 C 10,6 C 86 % 1023,1 hPa 0,0 l/m 0 min 0 min 0 W/m 9,7 km/h (2 Bft) 95,83 %
06.10.2023 23:56 15,2 C 14,4 C 10,6 C 85 % 1023,2 hPa 0,0 l/m 0 min 0 min 0 W/m 12,9 km/h (3 Bft) 95,74 %
06.10.2023 23:58 15,2 C 14,4 C 10,6 C 85 % 1023,2 hPa 0,0 l/m 0 min 0 min 0 W/m 6,4 km/h (2 Bft) 95,83 %
_ Min-Zeit 07:44 05:25 07:10 14:52 22:02 - - - - 00:00 08:08
Minimum _ 10,5 C 10,0 C 6,7 C 70 % 1022,9 hPa - - - - 0,0 km/h (0 Bft) 44,74 %
_ Max-Zeit 15:46 11:48 14:36 08:26 02:38 00:00 16:10 00:00 14:52 16:20 00:00
Maximum _ 19,9 C 21,1 C 15,0 C 95 % 1026,6 hPa 0,0 l/m 5 min 0 min 593 W/m 35,4 km/h
SW (5 Bft)
100,00 %
Durchschnitt _ 15,0 C 14,6 C 10,8 C 84 % 1024,8 hPa #0,0 l/m #4:41 h #0 min. 182 W/m 9,6 km/h (2 Bft) 97,23 %
© 2023 W. Hausmann